Wetterdaten: Dienstag, 26.01.2021
Datum Zeit Temp. Aussen Temp. o. S. Temp +5cm Feuchte Auss Luftdruck Regen Sonnenschein Regendauer Solar Windben Empfang
26.01.2021 00:00 2,4 C 1,7 C 0,6 C 93 % 1010,9 hPa 0,0 l/m 0 min 0 min 0 W/m 3,2 km/h (1 Bft) 95,74 %
26.01.2021 00:02 2,4 C 1,7 C 0,6 C 93 % 1010,9 hPa 0,0 l/m 0 min 0 min 0 W/m 3,2 km/h (1 Bft) 95,12 %
26.01.2021 00:04 2,4 C 2,2 C 0,6 C 93 % 1010,9 hPa 0,0 l/m 0 min 0 min 0 W/m 0,0 km/h (0 Bft) 93,48 %
26.01.2021 00:08 2,3 C 2,2 C 0,6 C 93 % 1010,9 hPa 0,0 l/m 0 min 0 min 0 W/m 3,2 km/h (1 Bft) 94,68 %
26.01.2021 00:10 2,4 C 2,2 C 0,6 C 93 % 1010,9 hPa 0,0 l/m 0 min 0 min 0 W/m 3,2 km/h (1 Bft) 93,62 %
26.01.2021 00:12 2,4 C 2,2 C 0,6 C 93 % 1010,9 hPa 0,0 l/m 0 min 0 min 0 W/m 16,1 km/h (3 Bft) 97,87 %
26.01.2021 00:14 2,4 C 2,2 C 0,6 C 93 % 1010,8 hPa 0,0 l/m 0 min 0 min 0 W/m 6,4 km/h (2 Bft) 97,83 %
26.01.2021 00:16 2,4 C 2,2 C 0,6 C 93 % 1010,9 hPa 0,0 l/m 0 min 0 min 0 W/m 3,2 km/h (1 Bft) 97,87 %
26.01.2021 00:18 2,4 C 2,2 C 0,6 C 93 % 1011,0 hPa 0,0 l/m 0 min 0 min 0 W/m 0,0 km/h (0 Bft) 97,87 %
26.01.2021 00:20 2,4 C 2,2 C 0,6 C 93 % 1011,0 hPa 0,0 l/m 0 min 0 min 0 W/m 12,9 km/h (3 Bft) 95,74 %
26.01.2021 00:22 2,4 C 2,2 C 0,6 C 93 % 1010,9 hPa 0,0 l/m 0 min 0 min 0 W/m 6,4 km/h (2 Bft) 97,87 %
26.01.2021 00:24 2,4 C 2,2 C 0,6 C 93 % 1010,9 hPa 0,0 l/m 0 min 0 min 0 W/m 22,5 km/h (4 Bft) 97,87 %
26.01.2021 00:26 2,4 C 2,2 C 0,6 C 93 % 1011,0 hPa 0,0 l/m 0 min 0 min 0 W/m 6,4 km/h (2 Bft) 97,87 %
26.01.2021 00:28 2,4 C 2,2 C 0,6 C 93 % 1010,9 hPa 0,0 l/m 0 min 0 min 0 W/m 0,0 km/h (0 Bft) 95,65 %
26.01.2021 00:30 2,4 C 2,2 C 0,6 C 93 % 1010,9 hPa 0,0 l/m 0 min 0 min 0 W/m 3,2 km/h (1 Bft) 97,87 %
26.01.2021 00:32 2,4 C 2,2 C 0,6 C 93 % 1011,0 hPa 0,0 l/m 0 min 0 min 0 W/m 12,9 km/h (3 Bft) 95,83 %
26.01.2021 00:34 2,4 C 2,2 C 0,6 C 93 % 1010,9 hPa 0,0 l/m 0 min 0 min 0 W/m 3,2 km/h (1 Bft) 96,00 %
26.01.2021 00:36 2,4 C 2,2 C 0,6 C 93 % 1010,8 hPa 0,0 l/m 0 min 0 min 0 W/m 6,4 km/h (2 Bft) 95,65 %
26.01.2021 00:38 2,4 C 2,2 C 0,6 C 93 % 1010,9 hPa 0,0 l/m 0 min 0 min 0 W/m 0,0 km/h (0 Bft) 97,87 %
26.01.2021 00:40 2,4 C 2,2 C 0,6 C 93 % 1010,8 hPa 0,0 l/m 0 min 0 min 0 W/m 0,0 km/h (0 Bft) 100,00 %
26.01.2021 00:42 2,5 C 2,2 C 0,6 C 93 % 1010,8 hPa 0,0 l/m 0 min 0 min 0 W/m 0,0 km/h (0 Bft) 100,00 %
26.01.2021 00:44 2,5 C 2,2 C 0,6 C 93 % 1010,8 hPa 0,0 l/m 0 min 0 min 0 W/m 0,0 km/h (0 Bft) 100,00 %
26.01.2021 00:46 2,5 C 2,2 C 0,6 C 93 % 1010,9 hPa 0,0 l/m 0 min 0 min 0 W/m 3,2 km/h (1 Bft) 100,00 %
26.01.2021 00:48 2,5 C 2,2 C 0,6 C 93 % 1010,8 hPa 0,0 l/m 0 min 0 min 0 W/m 6,4 km/h (2 Bft) 100,00 %
26.01.2021 00:50 2,5 C 2,2 C 0,6 C 93 % 1010,8 hPa 0,0 l/m 0 min 0 min 0 W/m 0,0 km/h (0 Bft) 100,00 %
26.01.2021 00:52 2,5 C 2,2 C 0,6 C 93 % 1010,7 hPa 0,0 l/m 0 min 0 min 0 W/m 3,2 km/h (1 Bft) 100,00 %
26.01.2021 00:54 2,5 C 2,2 C 0,6 C 93 % 1010,7 hPa 0,0 l/m 0 min 0 min 0 W/m 0,0 km/h (0 Bft) 100,00 %
26.01.2021 00:56 2,5 C 2,2 C 0,6 C 93 % 1010,8 hPa 0,0 l/m 0 min 0 min 0 W/m 3,2 km/h (1 Bft) 97,87 %
26.01.2021 00:58 2,5 C 2,2 C 0,6 C 93 % 1010,8 hPa 0,0 l/m 0 min 0 min 0 W/m 3,2 km/h (1 Bft) 100,00 %
26.01.2021 01:00 2,5 C 2,2 C 0,6 C 93 % 1010,8 hPa 0,0 l/m 0 min 0 min 0 W/m 3,2 km/h (1 Bft) 100,00 %
26.01.2021 01:02 2,5 C 2,2 C 0,6 C 93 % 1011,0 hPa 0,0 l/m 0 min 0 min 0 W/m 0,0 km/h (0 Bft) 100,00 %
26.01.2021 01:04 2,5 C 2,2 C 0,6 C 93 % 1010,9 hPa 0,0 l/m 0 min 0 min 0 W/m 0,0 km/h (0 Bft) 100,00 %
26.01.2021 01:06 2,6 C 2,2 C 0,6 C 93 % 1010,9 hPa 0,0 l/m 0 min 0 min 0 W/m 6,4 km/h (2 Bft) 97,87 %
26.01.2021 01:08 2,6 C 2,2 C 0,6 C 93 % 1011,1 hPa 0,0 l/m 0 min 0 min 0 W/m 3,2 km/h (1 Bft) 100,00 %
26.01.2021 01:10 2,6 C 2,2 C 0,6 C 93 % 1011,0 hPa 0,0 l/m 0 min 2 min 0 W/m 9,7 km/h (2 Bft) 100,00 %
26.01.2021 01:12 2,6 C 2,2 C 0,6 C 93 % 1011,0 hPa 0,0 l/m 0 min 2 min 0 W/m 0,0 km/h (0 Bft) 97,83 %
26.01.2021 01:14 2,6 C 2,2 C 0,6 C 93 % 1011,0 hPa 0,0 l/m 0 min 2 min 0 W/m 19,3 km/h (3 Bft) 100,00 %
26.01.2021 01:16 2,6 C 2,2 C 0,6 C 93 % 1011,0 hPa 0,0 l/m 0 min 2 min 0 W/m 9,7 km/h (2 Bft) 100,00 %
26.01.2021 01:18 2,6 C 2,2 C 0,6 C 93 % 1011,1 hPa 0,0 l/m 0 min 2 min 0 W/m 6,4 km/h (2 Bft) 100,00 %
26.01.2021 01:20 2,6 C 2,2 C 0,6 C 93 % 1011,1 hPa 0,0 l/m 0 min 2 min 0 W/m 22,5 km/h (4 Bft) 100,00 %
26.01.2021 01:22 2,7 C 1,7 C 0,6 C 93 % 1011,0 hPa 0,0 l/m 0 min 2 min 0 W/m 6,4 km/h (2 Bft) 97,87 %
26.01.2021 01:24 2,7 C 1,7 C 0,6 C 93 % 1011,1 hPa 0,0 l/m 0 min 2 min 0 W/m 3,2 km/h (1 Bft) 100,00 %
26.01.2021 01:26 2,7 C 1,7 C 0,6 C 93 % 1011,1 hPa 0,0 l/m 0 min 2 min 0 W/m 12,9 km/h (3 Bft) 100,00 %
26.01.2021 01:28 2,7 C 1,7 C 0,6 C 93 % 1011,1 hPa 0,2 l/m 0 min 2 min 0 W/m 6,4 km/h (2 Bft) 100,00 %
26.01.2021 01:30 2,7 C 1,7 C 0,6 C 93 % 1011,0 hPa 0,0 l/m 0 min 2 min 0 W/m 6,4 km/h (2 Bft) 100,00 %
26.01.2021 01:32 2,7 C 1,7 C 0,0 C 93 % 1011,0 hPa 0,0 l/m 0 min 2 min 0 W/m 0,0 km/h (0 Bft) 100,00 %
26.01.2021 01:34 2,7 C 1,7 C 0,0 C 93 % 1011,0 hPa 0,0 l/m 0 min 2 min 0 W/m 0,0 km/h (0 Bft) 100,00 %
26.01.2021 01:36 2,7 C 1,7 C 0,0 C 93 % 1010,9 hPa 0,0 l/m 0 min 2 min 0 W/m 16,1 km/h (3 Bft) 100,00 %
26.01.2021 01:38 2,7 C 1,7 C 0,6 C 94 % 1011,1 hPa 0,0 l/m 0 min 2 min 0 W/m 0,0 km/h (0 Bft) 100,00 %
26.01.2021 01:40 2,7 C 1,7 C 0,6 C 94 % 1011,1 hPa 0,0 l/m 0 min 2 min 0 W/m 0,0 km/h (0 Bft) 100,00 %
26.01.2021 01:42 2,7 C 1,7 C 0,6 C 94 % 1011,0 hPa 0,0 l/m 0 min 0 min 0 W/m 0,0 km/h (0 Bft) 97,87 %
26.01.2021 01:44 2,7 C 1,7 C 0,6 C 94 % 1011,0 hPa 0,0 l/m 0 min 0 min 0 W/m 0,0 km/h (0 Bft) 100,00 %
26.01.2021 01:46 2,7 C 1,7 C 0,6 C 94 % 1011,1 hPa 0,0 l/m 0 min 2 min 0 W/m 12,9 km/h (3 Bft) 100,00 %
26.01.2021 01:48 2,7 C 1,7 C 0,6 C 94 % 1011,0 hPa 0,0 l/m 0 min 2 min 0 W/m 0,0 km/h (0 Bft) 100,00 %
26.01.2021 01:50 2,7 C 1,7 C 0,0 C 94 % 1011,1 hPa 0,0 l/m 0 min 2 min 0 W/m 3,2 km/h (1 Bft) 100,00 %
26.01.2021 01:52 2,6 C 1,7 C 0,0 C 94 % 1011,2 hPa 0,2 l/m 0 min 2 min 0 W/m 0,0 km/h (0 Bft) 100,00 %
26.01.2021 01:54 2,6 C 1,1 C 0,0 C 94 % 1011,2 hPa 0,2 l/m 0 min 2 min 0 W/m 12,9 km/h (3 Bft) 100,00 %
26.01.2021 01:56 2,6 C 1,1 C 0,0 C 94 % 1011,2 hPa 0,0 l/m 0 min 2 min 0 W/m 3,2 km/h (1 Bft) 100,00 %
26.01.2021 01:58 2,6 C 1,1 C 0,0 C 94 % 1011,1 hPa 0,0 l/m 0 min 2 min 0 W/m 3,2 km/h (1 Bft) 100,00 %
26.01.2021 02:00 2,6 C 1,1 C 0,0 C 94 % 1011,1 hPa 0,2 l/m 0 min 2 min 0 W/m 0,0 km/h (0 Bft) 100,00 %
26.01.2021 02:02 2,6 C 1,1 C 0,0 C 94 % 1011,1 hPa 0,0 l/m 0 min 2 min 0 W/m 0,0 km/h (0 Bft) 100,00 %
26.01.2021 02:04 2,6 C 1,1 C 0,0 C 94 % 1011,0 hPa 0,0 l/m 0 min 2 min 0 W/m 3,2 km/h (1 Bft) 100,00 %
26.01.2021 02:06 2,6 C 1,1 C 0,0 C 94 % 1011,1 hPa 0,0 l/m 0 min 2 min 0 W/m 3,2 km/h (1 Bft) 100,00 %
26.01.2021 02:08 2,6 C 1,1 C 0,0 C 94 % 1011,0 hPa 0,0 l/m 0 min 0 min 0 W/m 6,4 km/h (2 Bft) 100,00 %
26.01.2021 02:10 2,6 C 1,7 C 0,0 C 94 % 1011,0 hPa 0,2 l/m 0 min 0 min 0 W/m 0,0 km/h (0 Bft) 100,00 %
26.01.2021 02:12 2,6 C 1,7 C 0,0 C 94 % 1011,0 hPa 0,0 l/m 0 min 2 min 0 W/m 0,0 km/h (0 Bft) 97,87 %
26.01.2021 02:14 2,6 C 1,7 C 0,0 C 94 % 1011,0 hPa 0,0 l/m 0 min 2 min 0 W/m 0,0 km/h (0 Bft) 100,00 %
26.01.2021 02:16 2,6 C 1,1 C 0,0 C 94 % 1011,1 hPa 0,2 l/m 0 min 2 min 0 W/m 12,9 km/h (3 Bft) 100,00 %
26.01.2021 02:18 2,5 C 1,1 C 0,0 C 94 % 1011,1 hPa 0,0 l/m 0 min 2 min 0 W/m 6,4 km/h (2 Bft) 100,00 %
26.01.2021 02:20 2,5 C 1,1 C 0,0 C 94 % 1011,2 hPa 0,2 l/m 0 min 2 min 0 W/m 3,2 km/h (1 Bft) 100,00 %
26.01.2021 02:22 2,5 C 1,1 C 0,0 C 95 % 1011,2 hPa 0,0 l/m 0 min 2 min 0 W/m 3,2 km/h (1 Bft) 91,49 %
26.01.2021 02:24 2,5 C 1,1 C 0,0 C 94 % 1011,2 hPa 0,0 l/m 0 min 2 min 0 W/m 3,2 km/h (1 Bft) 96,43 %
26.01.2021 02:26 2,5 C 1,1 C 0,0 C 94 % 1011,2 hPa 0,0 l/m 0 min 2 min 0 W/m 19,3 km/h (3 Bft) 100,00 %
26.01.2021 02:28 2,5 C 1,1 C 0,0 C 95 % 1011,2 hPa 0,0 l/m 0 min 2 min 0 W/m 16,1 km/h (3 Bft) 97,87 %
26.01.2021 02:30 2,5 C 1,1 C 0,6 C 95 % 1011,3 hPa 0,2 l/m 0 min 2 min 0 W/m 3,2 km/h (1 Bft) 93,62 %
26.01.2021 02:32 2,5 C 1,1 C 0,6 C 95 % 1011,2 hPa 0,0 l/m 0 min 2 min 0 W/m 3,2 km/h (1 Bft) 97,92 %
26.01.2021 02:34 2,5 C 1,1 C 0,6 C 95 % 1011,3 hPa 0,0 l/m 0 min 2 min 0 W/m 3,2 km/h (1 Bft) 95,74 %
26.01.2021 02:36 2,5 C 1,1 C 0,6 C 95 % 1011,4 hPa 0,0 l/m 0 min 2 min 0 W/m 3,2 km/h (1 Bft) 95,74 %
26.01.2021 02:38 2,5 C 1,1 C 0,6 C 95 % 1011,4 hPa 0,2 l/m 0 min 2 min 0 W/m 0,0 km/h (0 Bft) 97,83 %
26.01.2021 02:40 2,4 C 1,1 C 0,6 C 95 % 1011,3 hPa 0,0 l/m 0 min 2 min 0 W/m 0,0 km/h (0 Bft) 95,74 %
26.01.2021 02:42 2,4 C 1,1 C 0,6 C 95 % 1011,4 hPa 0,0 l/m 0 min 0 min 0 W/m 0,0 km/h (0 Bft) 93,62 %
26.01.2021 02:44 2,4 C 1,1 C 0,6 C 95 % 1011,4 hPa 0,0 l/m 0 min 0 min 0 W/m 3,2 km/h (1 Bft) 91,49 %
26.01.2021 02:46 2,4 C 1,1 C 0,6 C 95 % 1011,4 hPa 0,0 l/m 0 min 2 min 0 W/m 0,0 km/h (0 Bft) 89,36 %
26.01.2021 02:48 2,4 C 1,7 C 0,6 C 95 % 1011,5 hPa 0,0 l/m 0 min 2 min 0 W/m 6,4 km/h (2 Bft) 93,62 %
26.01.2021 02:50 2,4 C 1,7 C 0,6 C 95 % 1011,4 hPa 0,0 l/m 0 min 2 min 0 W/m 3,2 km/h (1 Bft) 93,48 %
26.01.2021 02:52 2,4 C 1,7 C 0,6 C 95 % 1011,5 hPa 0,0 l/m 0 min 2 min 0 W/m 3,2 km/h (1 Bft) 93,62 %
26.01.2021 02:54 2,4 C 1,7 C 0,6 C 95 % 1011,5 hPa 0,2 l/m 0 min 2 min 0 W/m 3,2 km/h (1 Bft) 91,49 %
26.01.2021 02:56 2,4 C 1,7 C 0,6 C 95 % 1011,5 hPa 0,0 l/m 0 min 2 min 0 W/m 0,0 km/h (0 Bft) 91,49 %
26.01.2021 02:58 2,5 C 1,7 C 0,6 C 95 % 1011,5 hPa 0,0 l/m 0 min 2 min 0 W/m 6,4 km/h (2 Bft) 93,62 %
26.01.2021 03:00 2,4 C 1,7 C 0,6 C 95 % 1011,5 hPa 0,2 l/m 0 min 2 min 0 W/m 3,2 km/h (1 Bft) 93,48 %
26.01.2021 03:02 2,5 C 1,7 C 0,6 C 95 % 1011,4 hPa 0,0 l/m 0 min 0 min 0 W/m 3,2 km/h (1 Bft) 93,75 %
26.01.2021 03:04 2,5 C 1,7 C 0,6 C 95 % 1011,5 hPa 0,0 l/m 0 min 0 min 0 W/m 0,0 km/h (0 Bft) 91,49 %
26.01.2021 03:06 2,5 C 1,7 C 0,6 C 96 % 1011,5 hPa 0,0 l/m 0 min 0 min 0 W/m 0,0 km/h (0 Bft) 93,62 %
26.01.2021 03:08 2,5 C 1,7 C 0,6 C 96 % 1011,6 hPa 0,0 l/m 0 min 0 min 0 W/m 6,4 km/h (2 Bft) 95,74 %
26.01.2021 03:10 2,5 C 1,7 C 0,6 C 96 % 1011,4 hPa 0,0 l/m 0 min 2 min 0 W/m 9,7 km/h (2 Bft) 95,74 %
26.01.2021 03:12 2,5 C 1,7 C 0,6 C 96 % 1011,5 hPa 0,0 l/m 0 min 0 min 0 W/m 3,2 km/h (1 Bft) 95,65 %
26.01.2021 03:14 2,5 C 1,7 C 0,6 C 96 % 1011,5 hPa 0,0 l/m 0 min 0 min 0 W/m 0,0 km/h (0 Bft) 95,74 %
26.01.2021 03:16 2,5 C 1,7 C 0,6 C 96 % 1011,4 hPa 0,0 l/m 0 min 0 min 0 W/m 19,3 km/h (3 Bft) 95,74 %
26.01.2021 03:18 2,5 C 1,7 C 0,6 C 96 % 1011,5 hPa 0,0 l/m 0 min 0 min 0 W/m 3,2 km/h (1 Bft) 95,74 %
26.01.2021 03:20 2,6 C 1,7 C 0,6 C 96 % 1011,5 hPa 0,0 l/m 0 min 2 min 0 W/m 6,4 km/h (2 Bft) 95,74 %
26.01.2021 03:22 2,6 C 1,7 C 0,6 C 96 % 1011,5 hPa 0,0 l/m 0 min 2 min 0 W/m 6,4 km/h (2 Bft) 97,87 %
26.01.2021 03:24 2,6 C 1,7 C 0,6 C 96 % 1011,5 hPa 0,0 l/m 0 min 2 min 0 W/m 3,2 km/h (1 Bft) 97,83 %
26.01.2021 03:26 2,6 C 1,7 C 0,6 C 96 % 1011,5 hPa 0,0 l/m 0 min 2 min 0 W/m 0,0 km/h (0 Bft) 97,87 %
26.01.2021 03:28 2,6 C 1,7 C 0,6 C 96 % 1011,4 hPa 0,0 l/m 0 min 2 min 0 W/m 3,2 km/h (1 Bft) 97,87 %
26.01.2021 03:30 2,6 C 1,7 C 0,6 C 96 % 1011,4 hPa 0,0 l/m 0 min 0 min 0 W/m 6,4 km/h (2 Bft) 97,87 %
26.01.2021 03:32 2,6 C 1,7 C 1,2 C 96 % 1011,4 hPa 0,0 l/m 0 min 2 min 0 W/m 0,0 km/h (0 Bft) 95,83 %
26.01.2021 03:34 2,6 C 1,7 C 1,2 C 96 % 1011,5 hPa 0,0 l/m 0 min 2 min 0 W/m 6,4 km/h (2 Bft) 97,87 %
26.01.2021 03:36 2,6 C 1,7 C 1,2 C 96 % 1011,7 hPa 0,0 l/m 0 min 2 min 0 W/m 6,4 km/h (2 Bft) 95,65 %
26.01.2021 03:38 2,7 C 1,7 C 1,2 C 96 % 1011,7 hPa 0,0 l/m 0 min 2 min 0 W/m 16,1 km/h (3 Bft) 97,87 %
26.01.2021 03:40 2,7 C 1,7 C 1,2 C 96 % 1011,6 hPa 0,0 l/m 0 min 2 min 0 W/m 0,0 km/h (0 Bft) 95,74 %
26.01.2021 03:42 2,7 C 1,7 C 1,2 C 96 % 1011,6 hPa 0,0 l/m 0 min 2 min 0 W/m 16,1 km/h (3 Bft) 95,74 %
26.01.2021 03:44 2,7 C 1,7 C 1,2 C 96 % 1011,8 hPa 0,0 l/m 0 min 2 min 0 W/m 3,2 km/h (1 Bft) 97,87 %
26.01.2021 03:46 2,7 C 1,7 C 1,2 C 96 % 1011,8 hPa 0,2 l/m 0 min 2 min 0 W/m 6,4 km/h (2 Bft) 97,87 %
26.01.2021 03:48 2,7 C 1,7 C 1,2 C 96 % 1011,9 hPa 0,0 l/m 0 min 2 min 0 W/m 12,9 km/h (3 Bft) 93,48 %
26.01.2021 03:50 2,7 C 1,7 C 0,6 C 96 % 1011,8 hPa 0,0 l/m 0 min 2 min 0 W/m 12,9 km/h (3 Bft) 97,87 %
26.01.2021 03:52 2,7 C 1,7 C 0,6 C 96 % 1011,8 hPa 0,0 l/m 0 min 2 min 0 W/m 6,4 km/h (2 Bft) 97,87 %
26.01.2021 03:54 2,7 C 1,7 C 0,6 C 96 % 1011,9 hPa 0,0 l/m 0 min 2 min 0 W/m 3,2 km/h (1 Bft) 97,87 %
26.01.2021 03:56 2,7 C 1,7 C 0,6 C 96 % 1011,9 hPa 0,0 l/m 0 min 2 min 0 W/m 6,4 km/h (2 Bft) 97,87 %
26.01.2021 03:58 2,7 C 1,7 C 0,6 C 96 % 1011,8 hPa 0,0 l/m 0 min 2 min 0 W/m 12,9 km/h (3 Bft) 97,87 %
26.01.2021 04:00 2,7 C 1,7 C 0,6 C 96 % 1011,8 hPa 0,0 l/m 0 min 0 min 0 W/m 0,0 km/h (0 Bft) 97,83 %
26.01.2021 04:02 2,7 C 1,7 C 0,6 C 96 % 1011,8 hPa 0,0 l/m 0 min 0 min 0 W/m 0,0 km/h (0 Bft) 100,00 %
26.01.2021 04:04 2,6 C 1,7 C 0,6 C 96 % 1011,9 hPa 0,0 l/m 0 min 0 min 0 W/m 3,2 km/h (1 Bft) 100,00 %
26.01.2021 04:06 2,6 C 1,7 C 0,6 C 96 % 1011,8 hPa 0,0 l/m 0 min 0 min 0 W/m 12,9 km/h (3 Bft) 98,31 %
26.01.2021 04:08 2,7 C 1,7 C 1,2 C 96 % 1011,9 hPa 0,0 l/m 0 min 2 min 0 W/m 3,2 km/h (1 Bft) 100,00 %
26.01.2021 04:10 2,7 C 1,7 C 1,2 C 96 % 1011,8 hPa 0,0 l/m 0 min 2 min 0 W/m 6,4 km/h (2 Bft) 95,74 %
26.01.2021 04:12 2,7 C 1,7 C 1,2 C 96 % 1011,8 hPa 0,0 l/m 0 min 2 min 0 W/m 3,2 km/h (1 Bft) 97,87 %
26.01.2021 04:14 2,7 C 1,7 C 1,2 C 96 % 1011,8 hPa 0,0 l/m 0 min 2 min 0 W/m 6,4 km/h (2 Bft) 100,00 %
26.01.2021 04:16 2,8 C 1,7 C 1,2 C 96 % 1011,8 hPa 0,0 l/m 0 min 2 min 0 W/m 6,4 km/h (2 Bft) 96,61 %
26.01.2021 04:18 2,7 C 2,2 C 1,2 C 96 % 1011,8 hPa 0,0 l/m 0 min 2 min 0 W/m 9,7 km/h (2 Bft) 97,87 %
26.01.2021 04:20 2,8 C 2,2 C 1,2 C 96 % 1011,8 hPa 0,0 l/m 0 min 2 min 0 W/m 58,0 km/h (7 Bft) 97,83 %
26.01.2021 04:22 2,8 C 2,2 C 1,2 C 96 % 1011,8 hPa 0,0 l/m 0 min 2 min 0 W/m 0,0 km/h (0 Bft) 97,87 %
26.01.2021 04:24 2,8 C 2,2 C 1,2 C 96 % 1011,8 hPa 0,0 l/m 0 min 2 min 0 W/m 6,4 km/h (2 Bft) 97,87 %
26.01.2021 04:26 2,8 C 2,2 C 1,2 C 96 % 1011,8 hPa 0,0 l/m 0 min 2 min 0 W/m 6,4 km/h (2 Bft) 95,74 %
26.01.2021 04:28 2,8 C 2,2 C 1,2 C 96 % 1011,9 hPa 0,0 l/m 0 min 2 min 0 W/m 9,7 km/h (2 Bft) 97,14 %
26.01.2021 04:30 2,8 C 2,2 C 1,2 C 96 % 1011,8 hPa 0,0 l/m 0 min 2 min 0 W/m 3,2 km/h (1 Bft) 98,31 %
26.01.2021 04:32 2,8 C 2,2 C 1,2 C 96 % 1011,8 hPa 0,0 l/m 0 min 0 min 0 W/m 16,1 km/h (3 Bft) 97,14 %
26.01.2021 04:34 2,9 C 2,2 C 1,2 C 96 % 1011,9 hPa 0,0 l/m 0 min 0 min 0 W/m 32,2 km/h (5 Bft) 97,87 %
26.01.2021 04:36 2,9 C 2,2 C 1,2 C 96 % 1012,1 hPa 0,0 l/m 0 min 2 min 0 W/m 25,7 km/h (4 Bft) 97,83 %
26.01.2021 04:38 2,9 C 2,2 C 1,2 C 96 % 1012,1 hPa 0,0 l/m 0 min 2 min 0 W/m 16,1 km/h (3 Bft) 94,92 %
26.01.2021 04:40 2,9 C 2,2 C 1,2 C 96 % 1012,0 hPa 0,0 l/m 0 min 2 min 0 W/m 19,3 km/h (3 Bft) 97,87 %
26.01.2021 04:42 2,9 C 2,2 C 1,2 C 96 % 1012,0 hPa 0,0 l/m 0 min 0 min 0 W/m 19,3 km/h (3 Bft) 97,87 %
26.01.2021 04:44 2,9 C 2,2 C 1,2 C 96 % 1012,0 hPa 0,0 l/m 0 min 0 min 0 W/m 25,7 km/h (4 Bft) 97,83 %
26.01.2021 04:46 2,9 C 2,2 C 1,2 C 96 % 1012,0 hPa 0,0 l/m 0 min 0 min 0 W/m 22,5 km/h (4 Bft) 97,87 %
26.01.2021 04:48 2,9 C 2,2 C 1,2 C 96 % 1012,1 hPa 0,0 l/m 0 min 0 min 0 W/m 19,3 km/h (3 Bft) 95,74 %
26.01.2021 04:50 2,9 C 2,2 C 1,2 C 96 % 1012,1 hPa 0,0 l/m 0 min 0 min 0 W/m 12,9 km/h (3 Bft) 97,87 %
26.01.2021 04:52 2,9 C 2,2 C 1,2 C 96 % 1012,1 hPa 0,0 l/m 0 min 0 min 0 W/m 12,9 km/h (3 Bft) 95,74 %
26.01.2021 04:54 2,9 C 2,2 C 1,2 C 96 % 1012,2 hPa 0,0 l/m 0 min 0 min 0 W/m 6,4 km/h (2 Bft) 97,87 %
26.01.2021 04:56 2,9 C 2,2 C 1,2 C 95 % 1012,1 hPa 0,0 l/m 0 min 0 min 0 W/m 9,7 km/h (2 Bft) 97,87 %
26.01.2021 04:58 2,9 C 2,2 C 1,2 C 95 % 1012,3 hPa 0,0 l/m 0 min 0 min 0 W/m 3,2 km/h (1 Bft) 97,14 %
26.01.2021 05:00 2,9 C 2,2 C 1,2 C 95 % 1012,2 hPa 0,0 l/m 0 min 0 min 0 W/m 3,2 km/h (1 Bft) 100,00 %
26.01.2021 05:02 2,9 C 2,2 C 1,2 C 95 % 1012,2 hPa 0,0 l/m 0 min 0 min 0 W/m 6,4 km/h (2 Bft) 93,62 %
26.01.2021 05:04 2,9 C 2,2 C 1,2 C 95 % 1012,3 hPa 0,0 l/m 0 min 0 min 0 W/m 6,4 km/h (2 Bft) 100,00 %
26.01.2021 05:06 2,9 C 2,2 C 1,2 C 95 % 1012,3 hPa 0,0 l/m 0 min 0 min 0 W/m 6,4 km/h (2 Bft) 97,87 %
26.01.2021 05:08 3,0 C 2,2 C 1,2 C 95 % 1012,4 hPa 0,0 l/m 0 min 0 min 0 W/m 0,0 km/h (0 Bft) 100,00 %
26.01.2021 05:10 3,0 C 2,2 C 1,2 C 95 % 1012,5 hPa 0,0 l/m 0 min 0 min 0 W/m 6,4 km/h (2 Bft) 100,00 %
26.01.2021 05:12 3,0 C 2,2 C 1,2 C 95 % 1012,5 hPa 0,0 l/m 0 min 0 min 0 W/m 6,4 km/h (2 Bft) 95,74 %
26.01.2021 05:14 3,0 C 2,2 C 1,2 C 95 % 1012,5 hPa 0,0 l/m 0 min 0 min 0 W/m 6,4 km/h (2 Bft) 95,74 %
26.01.2021 05:16 3,0 C 2,2 C 1,2 C 95 % 1012,6 hPa 0,0 l/m 0 min 0 min 0 W/m 9,7 km/h (2 Bft) 97,87 %
26.01.2021 05:18 3,0 C 2,2 C 1,2 C 95 % 1012,8 hPa 0,0 l/m 0 min 2 min 0 W/m 6,4 km/h (2 Bft) 97,87 %
26.01.2021 05:20 3,0 C 2,2 C 1,2 C 95 % 1012,6 hPa 0,0 l/m 0 min 2 min 0 W/m 32,2 km/h (5 Bft) 93,62 %
26.01.2021 05:22 3,0 C 1,7 C 1,2 C 95 % 1012,6 hPa 0,0 l/m 0 min 2 min 0 W/m 29,0 km/h (5 Bft) 95,65 %
26.01.2021 05:24 2,9 C 1,7 C 1,2 C 95 % 1012,8 hPa 0,0 l/m 0 min 2 min 0 W/m 6,4 km/h (2 Bft) 95,74 %
26.01.2021 05:26 2,9 C 1,7 C 1,2 C 95 % 1012,8 hPa 0,2 l/m 0 min 2 min 0 W/m 3,2 km/h (1 Bft) 93,62 %
26.01.2021 05:28 2,9 C 1,7 C 1,2 C 95 % 1012,9 hPa 0,0 l/m 0 min 2 min 0 W/m 35,4 km/h (5 Bft) 95,74 %
26.01.2021 05:30 2,9 C 1,7 C 1,2 C 95 % 1012,9 hPa 0,2 l/m 0 min 2 min 0 W/m 3,2 km/h (1 Bft) 93,62 %
26.01.2021 05:32 2,8 C 1,7 C 1,2 C 95 % 1012,8 hPa 0,0 l/m 0 min 2 min 0 W/m 9,7 km/h (2 Bft) 93,62 %
26.01.2021 05:34 2,8 C 1,7 C 0,6 C 95 % 1012,8 hPa 0,0 l/m 0 min 2 min 0 W/m 0,0 km/h (0 Bft) 95,65 %
26.01.2021 05:36 2,7 C 1,7 C 0,6 C 95 % 1012,9 hPa 0,0 l/m 0 min 0 min 0 W/m 12,9 km/h (3 Bft) 95,74 %
26.01.2021 05:38 2,7 C 1,7 C 1,2 C 95 % 1012,9 hPa 0,0 l/m 0 min 2 min 0 W/m 25,7 km/h (4 Bft) 95,74 %
26.01.2021 05:40 2,7 C 1,7 C 0,6 C 95 % 1012,8 hPa 0,0 l/m 0 min 2 min 0 W/m 6,4 km/h (2 Bft) 93,62 %
26.01.2021 05:42 2,7 C 1,7 C 1,2 C 95 % 1012,8 hPa 0,0 l/m 0 min 2 min 0 W/m 22,5 km/h (4 Bft) 93,22 %
26.01.2021 05:44 2,6 C 1,7 C 0,6 C 95 % 1012,9 hPa 0,0 l/m 0 min 2 min 0 W/m 0,0 km/h (0 Bft) 95,65 %
26.01.2021 05:46 2,6 C 1,7 C 0,6 C 95 % 1012,9 hPa 0,0 l/m 0 min 2 min 0 W/m 38,6 km/h (5 Bft) 95,74 %
26.01.2021 05:48 2,6 C 1,7 C 0,6 C 95 % 1012,9 hPa 0,0 l/m 0 min 0 min 0 W/m 6,4 km/h (2 Bft) 95,74 %
26.01.2021 05:50 2,6 C 1,7 C 0,6 C 95 % 1013,0 hPa 0,0 l/m 0 min 0 min 0 W/m 6,4 km/h (2 Bft) 95,74 %
26.01.2021 05:52 2,6 C 1,7 C 0,6 C 95 % 1012,9 hPa 0,0 l/m 0 min 0 min 0 W/m 3,2 km/h (1 Bft) 95,74 %
26.01.2021 05:54 2,6 C 1,7 C 0,6 C 95 % 1012,9 hPa 0,0 l/m 0 min 0 min 0 W/m 3,2 km/h (1 Bft) 95,74 %
26.01.2021 05:56 2,6 C 1,7 C 0,6 C 95 % 1012,9 hPa 0,0 l/m 0 min 0 min 0 W/m 3,2 km/h (1 Bft) 93,48 %
26.01.2021 05:58 2,6 C 1,7 C 0,6 C 95 % 1012,9 hPa 0,0 l/m 0 min 0 min 0 W/m 6,4 km/h (2 Bft) 95,74 %
26.01.2021 06:00 2,6 C 1,7 C 0,6 C 95 % 1013,0 hPa 0,0 l/m 0 min 0 min 0 W/m 16,1 km/h (3 Bft) 97,87 %
26.01.2021 06:02 2,5 C 1,7 C 0,6 C 95 % 1012,9 hPa 0,0 l/m 0 min 0 min 0 W/m 16,1 km/h (3 Bft) 91,49 %
26.01.2021 06:04 2,5 C 1,7 C 0,6 C 96 % 1013,0 hPa 0,0 l/m 0 min 0 min 0 W/m 6,4 km/h (2 Bft) 97,87 %
26.01.2021 06:08 2,5 C 1,7 C 0,6 C 96 % 1013,1 hPa 0,0 l/m 0 min 0 min 0 W/m 25,7 km/h (4 Bft) 97,85 %
26.01.2021 06:10 2,5 C 1,7 C 1,2 C 96 % 1013,1 hPa 0,0 l/m 0 min 0 min 0 W/m 9,7 km/h (2 Bft) 100,00 %
26.01.2021 06:12 2,5 C 1,7 C 1,2 C 96 % 1013,1 hPa 0,0 l/m 0 min 0 min 0 W/m 9,7 km/h (2 Bft) 97,87 %
26.01.2021 06:14 2,5 C 1,7 C 1,2 C 96 % 1013,2 hPa 0,0 l/m 0 min 0 min 0 W/m 32,2 km/h (5 Bft) 97,87 %
26.01.2021 06:16 2,6 C 1,7 C 1,2 C 96 % 1013,2 hPa 0,0 l/m 0 min 0 min 0 W/m 3,2 km/h (1 Bft) 100,00 %
26.01.2021 06:18 2,6 C 1,7 C 1,2 C 96 % 1013,2 hPa 0,0 l/m 0 min 0 min 0 W/m 6,4 km/h (2 Bft) 100,00 %
26.01.2021 06:20 2,6 C 1,7 C 1,2 C 96 % 1013,2 hPa 0,0 l/m 0 min 0 min 0 W/m 0,0 km/h (0 Bft) 100,00 %
26.01.2021 06:22 2,6 C 1,7 C 1,2 C 96 % 1013,2 hPa 0,0 l/m 0 min 0 min 0 W/m 6,4 km/h (2 Bft) 100,00 %
26.01.2021 06:24 2,6 C 1,7 C 1,2 C 96 % 1013,2 hPa 0,0 l/m 0 min 0 min 0 W/m 3,2 km/h (1 Bft) 100,00 %
26.01.2021 06:26 2,6 C 1,7 C 1,2 C 96 % 1013,2 hPa 0,0 l/m 0 min 0 min 0 W/m 6,4 km/h (2 Bft) 100,00 %
26.01.2021 06:28 2,6 C 1,7 C 1,2 C 96 % 1013,3 hPa 0,0 l/m 0 min 0 min 0 W/m 3,2 km/h (1 Bft) 100,00 %
26.01.2021 06:30 2,6 C 1,7 C 1,2 C 96 % 1013,3 hPa 0,0 l/m 0 min 0 min 0 W/m 3,2 km/h (1 Bft) 100,00 %
26.01.2021 06:32 2,6 C 1,7 C 1,2 C 96 % 1013,4 hPa 0,0 l/m 0 min 0 min 0 W/m 6,4 km/h (2 Bft) 95,74 %
26.01.2021 06:34 2,6 C 1,7 C 1,2 C 96 % 1013,3 hPa 0,0 l/m 0 min 2 min 0 W/m 0,0 km/h (0 Bft) 100,00 %
26.01.2021 06:36 2,6 C 1,7 C 1,2 C 96 % 1013,4 hPa 0,0 l/m 0 min 2 min 0 W/m 0,0 km/h (0 Bft) 100,00 %
26.01.2021 06:38 2,6 C 1,7 C 1,2 C 96 % 1013,4 hPa 0,0 l/m 0 min 0 min 0 W/m 0,0 km/h (0 Bft) 100,00 %
26.01.2021 06:40 2,6 C 1,7 C 1,2 C 96 % 1013,5 hPa 0,0 l/m 0 min 2 min 0 W/m 3,2 km/h (1 Bft) 100,00 %
26.01.2021 06:42 2,6 C 1,7 C 1,2 C 96 % 1013,5 hPa 0,0 l/m 0 min 2 min 0 W/m 6,4 km/h (2 Bft) 100,00 %
26.01.2021 06:44 2,7 C 1,7 C 1,2 C 96 % 1013,5 hPa 0,0 l/m 0 min 2 min 0 W/m 0,0 km/h (0 Bft) 100,00 %
26.01.2021 06:46 2,7 C 1,7 C 1,2 C 96 % 1013,5 hPa 0,0 l/m 0 min 2 min 0 W/m 3,2 km/h (1 Bft) 100,00 %
26.01.2021 06:48 2,7 C 1,7 C 1,2 C 96 % 1013,6 hPa 0,0 l/m 0 min 2 min 0 W/m 38,6 km/h (5 Bft) 100,00 %
26.01.2021 06:50 2,7 C 1,7 C 1,2 C 96 % 1013,7 hPa 0,0 l/m 0 min 2 min 0 W/m 3,2 km/h (1 Bft) 100,00 %
26.01.2021 06:52 2,8 C 1,7 C 1,2 C 96 % 1013,7 hPa 0,0 l/m 0 min 2 min 0 W/m 0,0 km/h (0 Bft) 97,87 %
26.01.2021 06:54 2,8 C 1,7 C 1,2 C 96 % 1013,7 hPa 0,0 l/m 0 min 2 min 0 W/m 9,7 km/h (2 Bft) 100,00 %
26.01.2021 06:56 2,8 C 2,2 C 1,2 C 96 % 1013,7 hPa 0,0 l/m 0 min 2 min 0 W/m 22,5 km/h (4 Bft) 98,28 %
26.01.2021 06:58 2,8 C 2,2 C 1,2 C 96 % 1013,7 hPa 0,0 l/m 0 min 2 min 0 W/m 12,9 km/h (3 Bft) 100,00 %
26.01.2021 07:00 2,8 C 1,7 C 1,2 C 96 % 1013,7 hPa 0,0 l/m 0 min 2 min 0 W/m 6,4 km/h (2 Bft) 100,00 %
26.01.2021 07:02 2,8 C 1,7 C 1,2 C 96 % 1013,7 hPa 0,0 l/m 0 min 2 min 0 W/m 9,7 km/h (2 Bft) 100,00 %
26.01.2021 07:04 2,8 C 1,7 C 1,2 C 96 % 1013,7 hPa 0,0 l/m 0 min 2 min 0 W/m 0,0 km/h (0 Bft) 97,14 %
26.01.2021 07:06 2,8 C 1,7 C 1,2 C 96 % 1013,7 hPa 0,0 l/m 0 min 2 min 0 W/m 0,0 km/h (0 Bft) 97,87 %
26.01.2021 07:08 2,8 C 1,7 C 1,2 C 96 % 1013,7 hPa 0,0 l/m 0 min 0 min 0 W/m 0,0 km/h (0 Bft) 100,00 %
26.01.2021 07:10 2,8 C 1,7 C 1,2 C 96 % 1013,7 hPa 0,0 l/m 0 min 0 min 0 W/m 3,2 km/h (1 Bft) 100,00 %
26.01.2021 07:12 2,8 C 1,7 C 1,2 C 96 % 1013,7 hPa 0,0 l/m 0 min 0 min 0 W/m 6,4 km/h (2 Bft) 100,00 %
26.01.2021 07:14 2,7 C 1,7 C 1,2 C 96 % 1013,7 hPa 0,0 l/m 0 min 0 min 0 W/m 6,4 km/h (2 Bft) 97,87 %
26.01.2021 07:16 2,7 C 1,7 C 1,2 C 96 % 1013,7 hPa 0,0 l/m 0 min 2 min 0 W/m 9,7 km/h (2 Bft) 100,00 %
26.01.2021 07:18 2,7 C 1,7 C 1,2 C 96 % 1013,8 hPa 0,0 l/m 0 min 2 min 0 W/m 0,0 km/h (0 Bft) 100,00 %
26.01.2021 07:20 2,7 C 1,7 C 1,2 C 96 % 1013,8 hPa 0,0 l/m 0 min 2 min 0 W/m 6,4 km/h (2 Bft) 100,00 %
26.01.2021 07:22 2,7 C 1,7 C 1,2 C 96 % 1013,8 hPa 0,0 l/m 0 min 2 min 0 W/m 12,9 km/h (3 Bft) 100,00 %
26.01.2021 07:24 2,7 C 1,7 C 1,2 C 96 % 1013,9 hPa 0,2 l/m 0 min 2 min 0 W/m 9,7 km/h (2 Bft) 100,00 %
26.01.2021 07:26 2,7 C 2,2 C 1,2 C 96 % 1014,0 hPa 0,0 l/m 0 min 2 min 0 W/m 19,3 km/h (3 Bft) 100,00 %
26.01.2021 07:28 2,7 C 1,7 C 1,2 C 96 % 1014,0 hPa 0,0 l/m 0 min 2 min 0 W/m 6,4 km/h (2 Bft) 54,55 %
26.01.2021 07:30 2,7 C 1,7 C 1,2 C 96 % 1014,0 hPa 0,0 l/m 0 min 2 min 0 W/m 6,4 km/h (2 Bft) 100,00 %
26.01.2021 07:32 2,7 C 1,7 C 1,2 C 96 % 1014,2 hPa 0,0 l/m 0 min 2 min 0 W/m 6,4 km/h (2 Bft) 100,00 %
26.01.2021 07:34 2,7 C 1,7 C 1,2 C 96 % 1014,1 hPa 0,0 l/m 0 min 2 min 0 W/m 6,4 km/h (2 Bft) 100,00 %
26.01.2021 07:36 2,7 C 1,7 C 1,2 C 96 % 1014,1 hPa 0,0 l/m 0 min 2 min 0 W/m 3,2 km/h (1 Bft) 100,00 %
26.01.2021 07:38 2,8 C 1,7 C 1,2 C 96 % 1014,1 hPa 0,0 l/m 0 min 2 min 0 W/m 16,1 km/h (3 Bft) 97,87 %
26.01.2021 07:40 2,8 C 1,7 C 1,2 C 96 % 1014,1 hPa 0,0 l/m 0 min 2 min 0 W/m 6,4 km/h (2 Bft) 100,00 %
26.01.2021 07:42 2,8 C 1,7 C 1,2 C 96 % 1014,1 hPa 0,0 l/m 0 min 2 min 0 W/m 6,4 km/h (2 Bft) 100,00 %
26.01.2021 07:44 2,8 C 1,7 C 1,2 C 96 % 1014,2 hPa 0,0 l/m 0 min 2 min 0 W/m 9,7 km/h (2 Bft) 100,00 %
26.01.2021 07:46 2,8 C 2,2 C 1,2 C 96 % 1014,2 hPa 0,0 l/m 0 min 2 min 0 W/m 29,0 km/h (5 Bft) 100,00 %
26.01.2021 07:48 2,7 C 2,2 C 1,2 C 96 % 1014,2 hPa 0,0 l/m 0 min 2 min 0 W/m 3,2 km/h (1 Bft) 97,87 %
26.01.2021 07:50 2,8 C 2,2 C 1,2 C 96 % 1014,2 hPa 0,0 l/m 0 min 2 min 0 W/m 0,0 km/h (0 Bft) 95,74 %
26.01.2021 07:52 2,8 C 2,2 C 1,2 C 96 % 1014,2 hPa 0,0 l/m 0 min 2 min 0 W/m 32,2 km/h (5 Bft) 97,87 %
26.01.2021 07:54 2,8 C 2,2 C 1,2 C 96 % 1014,3 hPa 0,0 l/m 0 min 2 min 0 W/m 12,9 km/h (3 Bft) 97,87 %
26.01.2021 07:56 2,8 C 2,2 C 1,2 C 96 % 1014,2 hPa 0,0 l/m 0 min 2 min 0 W/m 9,7 km/h (2 Bft) 95,65 %
26.01.2021 07:58 2,8 C 2,2 C 1,2 C 96 % 1014,2 hPa 0,0 l/m 0 min 2 min 0 W/m 3,2 km/h (1 Bft) 97,87 %
26.01.2021 08:00 2,8 C 1,7 C 1,2 C 96 % 1014,3 hPa 0,0 l/m 0 min 0 min 0 W/m 25,7 km/h (4 Bft) 95,74 %
26.01.2021 08:02 2,7 C 1,7 C 1,2 C 96 % 1014,4 hPa 0,0 l/m 0 min 2 min 0 W/m 19,3 km/h (3 Bft) 97,87 %
26.01.2021 08:04 2,7 C 1,7 C 1,2 C 96 % 1014,4 hPa 0,0 l/m 0 min 2 min 0 W/m 6,4 km/h (2 Bft) 100,00 %
26.01.2021 08:06 2,7 C 1,7 C 1,2 C 96 % 1014,3 hPa 0,0 l/m 0 min 2 min 0 W/m 0,0 km/h (0 Bft) 98,28 %
26.01.2021 08:08 2,7 C 1,7 C 1,2 C 96 % 1014,4 hPa 0,0 l/m 0 min 0 min 0 W/m 0,0 km/h (0 Bft) 97,87 %
26.01.2021 08:10 2,7 C 1,7 C 1,2 C 96 % 1014,4 hPa 0,0 l/m 0 min 2 min 0 W/m 0,0 km/h (0 Bft) 97,14 %
26.01.2021 08:12 2,7 C 1,7 C 1,2 C 96 % 1014,4 hPa 0,0 l/m 0 min 0 min 0 W/m 6,4 km/h (2 Bft) 98,18 %
26.01.2021 08:14 2,7 C 1,7 C 1,2 C 96 % 1014,4 hPa 0,0 l/m 0 min 2 min 0 W/m 16,1 km/h (3 Bft) 95,74 %
26.01.2021 08:16 2,6 C 1,7 C 1,2 C 96 % 1014,5 hPa 0,0 l/m 0 min 2 min 0 W/m 6,4 km/h (2 Bft) 97,87 %
26.01.2021 08:18 2,7 C 1,7 C 1,2 C 96 % 1014,5 hPa 0,2 l/m 0 min 2 min 0 W/m 12,9 km/h (3 Bft) 95,65 %
26.01.2021 08:20 2,7 C 1,7 C 1,2 C 96 % 1014,4 hPa 0,0 l/m 0 min 2 min 0 W/m 6,4 km/h (2 Bft) 97,87 %
26.01.2021 08:22 2,7 C 1,7 C 1,2 C 96 % 1014,5 hPa 0,0 l/m 0 min 2 min 0 W/m 6,4 km/h (2 Bft) 95,74 %
26.01.2021 08:24 2,7 C 1,7 C 1,2 C 96 % 1014,5 hPa 0,0 l/m 0 min 2 min 0 W/m 6,4 km/h (2 Bft) 93,62 %
26.01.2021 08:26 2,7 C 1,7 C 1,2 C 96 % 1014,6 hPa 0,0 l/m 0 min 2 min 0 W/m 0,0 km/h (0 Bft) 95,65 %
26.01.2021 08:28 2,8 C 1,7 C 1,2 C 96 % 1014,6 hPa 0,0 l/m 0 min 2 min 0 W/m 9,7 km/h (2 Bft) 95,74 %
26.01.2021 08:30 2,8 C 1,7 C 1,2 C 96 % 1014,7 hPa 0,0 l/m 0 min 2 min 0 W/m 6,4 km/h (2 Bft) 93,48 %
26.01.2021 08:32 2,8 C 1,7 C 1,2 C 96 % 1014,7 hPa 0,0 l/m 0 min 2 min 0 W/m 3,2 km/h (1 Bft) 97,87 %
26.01.2021 08:34 2,8 C 2,2 C 1,2 C 96 % 1014,8 hPa 0,0 l/m 0 min 2 min 0 W/m 6,4 km/h (2 Bft) 95,74 %
26.01.2021 08:36 2,8 C 1,7 C 1,2 C 96 % 1014,9 hPa 0,0 l/m 0 min 2 min 0 W/m 6,4 km/h (2 Bft) 96,00 %
26.01.2021 08:38 2,8 C 1,7 C 1,2 C 96 % 1014,9 hPa 0,0 l/m 0 min 2 min 0 W/m 3,2 km/h (1 Bft) 95,83 %
26.01.2021 08:40 2,8 C 1,7 C 1,2 C 96 % 1014,7 hPa 0,0 l/m 0 min 2 min 5 W/m 0,0 km/h (0 Bft) 97,83 %
26.01.2021 08:42 2,8 C 2,2 C 1,2 C 96 % 1014,8 hPa 0,0 l/m 0 min 2 min 5 W/m 12,9 km/h (3 Bft) 95,74 %
26.01.2021 08:44 2,8 C 2,2 C 1,2 C 96 % 1014,9 hPa 0,0 l/m 0 min 2 min 5 W/m 3,2 km/h (1 Bft) 97,87 %
26.01.2021 08:46 2,8 C 2,2 C 1,2 C 96 % 1014,9 hPa 0,0 l/m 0 min 2 min 5 W/m 25,7 km/h (4 Bft) 97,87 %
26.01.2021 08:48 2,8 C 2,2 C 1,2 C 96 % 1015,0 hPa 0,0 l/m 0 min 2 min 8 W/m 29,0 km/h (5 Bft) 97,87 %
26.01.2021 08:50 2,8 C 2,2 C 1,2 C 96 % 1015,0 hPa 0,0 l/m 0 min 2 min 11 W/m 6,4 km/h (2 Bft) 97,14 %
26.01.2021 08:52 2,8 C 2,2 C 1,2 C 96 % 1015,1 hPa 0,0 l/m 0 min 2 min 11 W/m 6,4 km/h (2 Bft) 96,55 %
26.01.2021 08:54 2,8 C 2,2 C 1,2 C 96 % 1015,1 hPa 0,0 l/m 0 min 2 min 12 W/m 3,2 km/h (1 Bft) 95,74 %
26.01.2021 08:56 2,9 C 2,2 C 1,2 C 96 % 1015,1 hPa 0,0 l/m 0 min 2 min 7 W/m 3,2 km/h (1 Bft) 97,87 %
26.01.2021 08:58 2,9 C 2,2 C 1,2 C 96 % 1015,1 hPa 0,0 l/m 0 min 2 min 10 W/m 9,7 km/h (2 Bft) 97,14 %
26.01.2021 09:00 2,9 C 2,2 C 1,7 C 96 % 1015,0 hPa 0,0 l/m 0 min 2 min 11 W/m 3,2 km/h (1 Bft) 97,87 %
26.01.2021 09:02 2,9 C 2,2 C 1,7 C 96 % 1015,1 hPa 0,0 l/m 0 min 2 min 7 W/m 6,4 km/h (2 Bft) 95,74 %
26.01.2021 09:04 2,9 C 2,2 C 1,7 C 96 % 1015,1 hPa 0,0 l/m 0 min 2 min 5 W/m 9,7 km/h (2 Bft) 97,87 %
26.01.2021 09:06 2,9 C 2,2 C 1,7 C 96 % 1015,1 hPa 0,0 l/m 0 min 2 min 0 W/m 3,2 km/h (1 Bft) 95,65 %
26.01.2021 09:08 2,9 C 2,2 C 1,7 C 96 % 1015,2 hPa 0,0 l/m 0 min 2 min 4 W/m 3,2 km/h (1 Bft) 97,87 %
26.01.2021 09:10 2,9 C 2,2 C 1,7 C 96 % 1015,1 hPa 0,0 l/m 0 min 2 min 2 W/m 6,4 km/h (2 Bft) 95,74 %
26.01.2021 09:12 2,9 C 2,2 C 1,7 C 96 % 1015,3 hPa 0,0 l/m 0 min 2 min 3 W/m 25,7 km/h (4 Bft) 100,00 %
26.01.2021 09:14 2,9 C 2,2 C 1,7 C 96 % 1015,3 hPa 0,0 l/m 0 min 2 min 5 W/m 3,2 km/h (1 Bft) 100,00 %
26.01.2021 09:16 2,9 C 2,2 C 1,7 C 96 % 1015,3 hPa 0,0 l/m 0 min 2 min 6 W/m 0,0 km/h (0 Bft) 97,87 %
26.01.2021 09:18 2,9 C 2,2 C 1,7 C 96 % 1015,3 hPa 0,0 l/m 0 min 2 min 8 W/m 0,0 km/h (0 Bft) 34,38 %
26.01.2021 09:20 2,9 C 2,2 C 1,2 C 96 % 1015,4 hPa 0,0 l/m 0 min 2 min 13 W/m 6,4 km/h (2 Bft) 100,00 %
26.01.2021 09:22 2,9 C 2,2 C 1,2 C 96 % 1015,4 hPa 0,0 l/m 0 min 2 min 25 W/m 6,4 km/h (2 Bft) 100,00 %
26.01.2021 09:24 2,9 C 2,2 C 1,7 C 96 % 1015,4 hPa 0,0 l/m 0 min 2 min 33 W/m 9,7 km/h (2 Bft) 100,00 %
26.01.2021 09:26 2,9 C 2,2 C 1,7 C 96 % 1015,4 hPa 0,0 l/m 0 min 2 min 23 W/m 0,0 km/h (0 Bft) 95,74 %
26.01.2021 09:28 2,9 C 2,2 C 1,2 C 96 % 1015,5 hPa 0,0 l/m 0 min 2 min 29 W/m 3,2 km/h (1 Bft) 97,87 %
26.01.2021 09:30 2,9 C 2,2 C 1,7 C 96 % 1015,5 hPa 0,0 l/m 0 min 0 min 40 W/m 3,2 km/h (1 Bft) 100,00 %
26.01.2021 09:32 2,9 C 2,2 C 1,7 C 96 % 1015,6 hPa 0,0 l/m 0 min 0 min 28 W/m 3,2 km/h (1 Bft) 97,87 %
26.01.2021 09:34 2,9 C 2,2 C 1,7 C 96 % 1015,6 hPa 0,0 l/m 0 min 0 min 20 W/m 6,4 km/h (2 Bft) 100,00 %
26.01.2021 09:36 2,8 C 2,2 C 1,7 C 96 % 1015,7 hPa 0,0 l/m 0 min 2 min 15 W/m 9,7 km/h (2 Bft) 100,00 %
26.01.2021 09:38 2,8 C 2,2 C 1,7 C 96 % 1015,7 hPa 0,0 l/m 0 min 2 min 15 W/m 6,4 km/h (2 Bft) 100,00 %
26.01.2021 09:40 2,8 C 2,2 C 1,7 C 96 % 1015,7 hPa 0,0 l/m 0 min 2 min 19 W/m 12,9 km/h (3 Bft) 100,00 %
26.01.2021 09:42 2,8 C 2,2 C 1,7 C 96 % 1015,7 hPa 0,0 l/m 0 min 2 min 25 W/m 0,0 km/h (0 Bft) 100,00 %
26.01.2021 09:44 2,9 C 2,2 C 1,7 C 96 % 1015,7 hPa 0,0 l/m 0 min 2 min 25 W/m 12,9 km/h (3 Bft) 100,00 %
26.01.2021 09:46 2,9 C 2,2 C 1,7 C 96 % 1015,8 hPa 0,0 l/m 0 min 2 min 21 W/m 6,4 km/h (2 Bft) 95,74 %
26.01.2021 09:48 2,9 C 2,2 C 1,7 C 96 % 1015,8 hPa 0,0 l/m 0 min 2 min 21 W/m 9,7 km/h (2 Bft) 100,00 %
26.01.2021 09:50 2,9 C 2,2 C 1,7 C 96 % 1015,8 hPa 0,0 l/m 0 min 2 min 27 W/m 19,3 km/h (3 Bft) 100,00 %
26.01.2021 09:52 2,9 C 2,2 C 1,7 C 96 % 1015,9 hPa 0,0 l/m 0 min 2 min 20 W/m 9,7 km/h (2 Bft) 100,00 %
26.01.2021 09:54 2,9 C 2,2 C 1,7 C 96 % 1015,9 hPa 0,0 l/m 0 min 2 min 11 W/m 3,2 km/h (1 Bft) 97,87 %
26.01.2021 09:56 2,9 C 2,2 C 1,7 C 96 % 1016,0 hPa 0,2 l/m 0 min 2 min 12 W/m 6,4 km/h (2 Bft) 100,00 %
26.01.2021 09:58 2,9 C 2,2 C 1,7 C 96 % 1016,0 hPa 0,0 l/m 0 min 2 min 16 W/m 3,2 km/h (1 Bft) 100,00 %
26.01.2021 10:00 2,9 C 2,2 C 1,7 C 96 % 1016,0 hPa 0,0 l/m 0 min 2 min 27 W/m 16,1 km/h (3 Bft) 100,00 %
26.01.2021 10:02 2,9 C 2,2 C 1,7 C 96 % 1016,0 hPa 0,0 l/m 0 min 2 min 32 W/m 0,0 km/h (0 Bft) 97,83 %
26.01.2021 10:04 2,9 C 2,2 C 1,7 C 96 % 1016,0 hPa 0,0 l/m 0 min 2 min 27 W/m 0,0 km/h (0 Bft) 100,00 %
26.01.2021 10:06 2,9 C 2,2 C 1,7 C 96 % 1016,1 hPa 0,0 l/m 0 min 2 min 19 W/m 3,2 km/h (1 Bft) 95,74 %
26.01.2021 10:08 2,9 C 2,2 C 1,7 C 96 % 1016,1 hPa 0,0 l/m 0 min 2 min 23 W/m 3,2 km/h (1 Bft) 100,00 %
26.01.2021 10:10 2,9 C 2,2 C 1,7 C 96 % 1016,3 hPa 0,0 l/m 0 min 2 min 39 W/m 3,2 km/h (1 Bft) 97,87 %
26.01.2021 10:12 2,9 C 2,2 C 1,7 C 96 % 1016,2 hPa 0,0 l/m 0 min 2 min 40 W/m 9,7 km/h (2 Bft) 100,00 %
26.01.2021 10:14 2,9 C 2,2 C 1,7 C 96 % 1016,2 hPa 0,0 l/m 0 min 2 min 36 W/m 9,7 km/h (2 Bft) 95,65 %
26.01.2021 10:16 2,9 C 2,2 C 1,7 C 96 % 1016,3 hPa 0,0 l/m 0 min 2 min 31 W/m 3,2 km/h (1 Bft) 97,87 %
26.01.2021 10:18 2,9 C 2,2 C 1,7 C 96 % 1016,3 hPa 0,0 l/m 0 min 2 min 27 W/m 6,4 km/h (2 Bft) 100,00 %
26.01.2021 10:20 2,9 C 2,2 C 1,7 C 96 % 1016,3 hPa 0,0 l/m 0 min 2 min 27 W/m 9,7 km/h (2 Bft) 100,00 %
26.01.2021 10:22 3,0 C 2,2 C 1,7 C 96 % 1016,4 hPa 0,0 l/m 0 min 2 min 39 W/m 16,1 km/h (3 Bft) 97,87 %
26.01.2021 10:24 3,0 C 2,2 C 1,7 C 96 % 1016,5 hPa 0,0 l/m 0 min 2 min 63 W/m 3,2 km/h (1 Bft) 97,87 %
26.01.2021 10:26 3,0 C 2,2 C 1,7 C 96 % 1016,4 hPa 0,0 l/m 0 min 2 min 82 W/m 19,3 km/h (3 Bft) 97,83 %
26.01.2021 10:28 3,0 C 2,8 C 1,7 C 96 % 1016,5 hPa 0,0 l/m 0 min 2 min 97 W/m 6,4 km/h (2 Bft) 97,87 %
26.01.2021 10:30 3,0 C 2,8 C 1,7 C 96 % 1016,5 hPa 0,0 l/m 0 min 2 min 80 W/m 6,4 km/h (2 Bft) 97,87 %
26.01.2021 10:32 3,0 C 2,2 C 1,7 C 96 % 1016,5 hPa 0,0 l/m 0 min 2 min 45 W/m 3,2 km/h (1 Bft) 97,87 %
26.01.2021 10:34 3,0 C 2,2 C 1,7 C 96 % 1016,5 hPa 0,0 l/m 0 min 2 min 48 W/m 6,4 km/h (2 Bft) 97,87 %
26.01.2021 10:36 3,0 C 2,2 C 1,7 C 96 % 1016,6 hPa 0,0 l/m 0 min 2 min 51 W/m 3,2 km/h (1 Bft) 95,74 %
26.01.2021 10:38 3,0 C 2,2 C 1,7 C 96 % 1016,6 hPa 0,0 l/m 0 min 2 min 30 W/m 6,4 km/h (2 Bft) 93,48 %
26.01.2021 10:40 3,0 C 2,2 C 1,7 C 96 % 1016,7 hPa 0,0 l/m 0 min 2 min 25 W/m 6,4 km/h (2 Bft) 97,87 %
26.01.2021 10:42 3,0 C 2,2 C 1,7 C 96 % 1016,7 hPa 0,0 l/m 0 min 2 min 32 W/m 6,4 km/h (2 Bft) 97,87 %
26.01.2021 10:44 3,0 C 2,2 C 1,7 C 96 % 1016,8 hPa 0,0 l/m 0 min 2 min 35 W/m 6,4 km/h (2 Bft) 97,87 %
26.01.2021 10:46 3,0 C 2,2 C 1,7 C 96 % 1016,8 hPa 0,0 l/m 0 min 2 min 49 W/m 6,4 km/h (2 Bft) 97,87 %
26.01.2021 10:48 3,0 C 2,2 C 1,7 C 96 % 1016,8 hPa 0,0 l/m 0 min 2 min 72 W/m 12,9 km/h (3 Bft) 97,87 %
26.01.2021 10:50 3,0 C 2,2 C 1,7 C 96 % 1016,8 hPa 0,0 l/m 0 min 2 min 89 W/m 32,2 km/h (5 Bft) 97,83 %
26.01.2021 10:52 3,0 C 2,8 C 1,7 C 96 % 1016,9 hPa 0,0 l/m 0 min 2 min 95 W/m 3,2 km/h (1 Bft) 97,14 %
26.01.2021 10:54 3,1 C 2,8 C 1,7 C 96 % 1016,8 hPa 0,0 l/m 0 min 2 min 65 W/m 0,0 km/h (0 Bft) 97,87 %
26.01.2021 10:56 3,1 C 2,8 C 2,3 C 96 % 1016,9 hPa 0,0 l/m 0 min 2 min 53 W/m 0,0 km/h (0 Bft) 97,87 %
26.01.2021 10:58 3,1 C 2,8 C 2,3 C 96 % 1016,9 hPa 0,0 l/m 0 min 2 min 46 W/m 22,5 km/h (4 Bft) 97,87 %
26.01.2021 11:00 3,1 C 2,8 C 1,7 C 96 % 1017,0 hPa 0,0 l/m 0 min 2 min 42 W/m 6,4 km/h (2 Bft) 97,87 %
26.01.2021 11:02 3,1 C 2,8 C 1,7 C 96 % 1017,0 hPa 0,0 l/m 0 min 2 min 41 W/m 6,4 km/h (2 Bft) 97,87 %
26.01.2021 11:04 3,1 C 2,8 C 1,7 C 96 % 1017,1 hPa 0,0 l/m 0 min 2 min 36 W/m 6,4 km/h (2 Bft) 97,83 %
26.01.2021 11:06 3,2 C 2,2 C 1,7 C 96 % 1017,1 hPa 0,0 l/m 0 min 2 min 22 W/m 3,2 km/h (1 Bft) 95,74 %
26.01.2021 11:08 3,1 C 2,2 C 1,7 C 96 % 1017,2 hPa 0,0 l/m 0 min 2 min 19 W/m 0,0 km/h (0 Bft) 97,87 %
26.01.2021 11:10 3,1 C 2,2 C 1,7 C 96 % 1017,2 hPa 0,0 l/m 0 min 2 min 19 W/m 0,0 km/h (0 Bft) 50,00 %
26.01.2021 11:12 3,1 C 2,2 C 1,7 C 96 % 1017,4 hPa 0,0 l/m 0 min 2 min 21 W/m 6,4 km/h (2 Bft) 100,00 %
26.01.2021 11:14 3,1 C 2,2 C 1,7 C 96 % 1017,3 hPa 0,0 l/m 0 min 2 min 21 W/m 3,2 km/h (1 Bft) 100,00 %
26.01.2021 11:16 3,1 C 2,2 C 1,7 C 96 % 1017,3 hPa 0,0 l/m 0 min 2 min 33 W/m 3,2 km/h (1 Bft) 100,00 %
26.01.2021 11:18 3,1 C 2,2 C 1,7 C 96 % 1017,3 hPa 0,2 l/m 0 min 2 min 43 W/m 3,2 km/h (1 Bft) 97,87 %
26.01.2021 11:20 3,1 C 2,2 C 1,7 C 96 % 1017,3 hPa 0,0 l/m 0 min 2 min 33 W/m 6,4 km/h (2 Bft) 97,87 %
26.01.2021 11:22 3,1 C 2,2 C 1,7 C 96 % 1017,3 hPa 0,0 l/m 0 min 2 min 26 W/m 3,2 km/h (1 Bft) 97,87 %
26.01.2021 11:24 3,1 C 2,2 C 1,7 C 96 % 1017,4 hPa 0,0 l/m 0 min 2 min 30 W/m 0,0 km/h (0 Bft) 97,87 %
26.01.2021 11:26 3,1 C 2,2 C 1,7 C 96 % 1017,4 hPa 0,0 l/m 0 min 2 min 36 W/m 16,1 km/h (3 Bft) 95,74 %
26.01.2021 11:28 3,1 C 2,2 C 1,7 C 96 % 1017,4 hPa 0,0 l/m 0 min 2 min 40 W/m 3,2 km/h (1 Bft) 97,83 %
26.01.2021 11:30 3,1 C 2,2 C 1,7 C 96 % 1017,5 hPa 0,0 l/m 0 min 2 min 53 W/m 3,2 km/h (1 Bft) 95,74 %
26.01.2021 11:32 3,1 C 2,2 C 1,7 C 96 % 1017,5 hPa 0,0 l/m 0 min 2 min 66 W/m 0,0 km/h (0 Bft) 97,87 %
26.01.2021 11:34 3,1 C 2,2 C 1,7 C 96 % 1017,5 hPa 0,0 l/m 0 min 2 min 49 W/m 0,0 km/h (0 Bft) 97,87 %
26.01.2021 11:36 3,1 C 2,2 C 1,7 C 96 % 1017,5 hPa 0,0 l/m 0 min 2 min 39 W/m 6,4 km/h (2 Bft) 93,62 %
26.01.2021 11:38 3,1 C 2,2 C 1,7 C 96 % 1017,5 hPa 0,0 l/m 0 min 2 min 32 W/m 3,2 km/h (1 Bft) 95,74 %
26.01.2021 11:40 3,1 C 2,2 C 1,7 C 96 % 1017,6 hPa 0,0 l/m 0 min 2 min 35 W/m 0,0 km/h (0 Bft) 95,74 %
26.01.2021 11:42 3,1 C 2,2 C 1,7 C 96 % 1017,5 hPa 0,0 l/m 0 min 2 min 42 W/m 6,4 km/h (2 Bft) 95,65 %
26.01.2021 11:44 3,1 C 2,2 C 1,7 C 96 % 1017,5 hPa 0,0 l/m 0 min 2 min 42 W/m 3,2 km/h (1 Bft) 95,74 %
26.01.2021 11:46 3,1 C 2,2 C 1,7 C 96 % 1017,5 hPa 0,0 l/m 0 min 2 min 46 W/m 19,3 km/h (3 Bft) 95,74 %
26.01.2021 11:48 3,1 C 2,2 C 1,7 C 96 % 1017,5 hPa 0,0 l/m 0 min 2 min 51 W/m 3,2 km/h (1 Bft) 93,62 %
26.01.2021 11:50 3,1 C 2,2 C 1,7 C 96 % 1017,5 hPa 0,0 l/m 0 min 2 min 66 W/m 6,4 km/h (2 Bft) 93,62 %
26.01.2021 11:52 3,1 C 2,2 C 1,7 C 96 % 1017,5 hPa 0,0 l/m 0 min 2 min 79 W/m 3,2 km/h (1 Bft) 93,48 %
26.01.2021 11:54 3,1 C 2,8 C 2,3 C 96 % 1017,5 hPa 0,0 l/m 0 min 2 min 86 W/m 3,2 km/h (1 Bft) 94,92 %
26.01.2021 11:56 3,1 C 2,8 C 2,3 C 96 % 1017,6 hPa 0,0 l/m 0 min 2 min 72 W/m 3,2 km/h (1 Bft) 93,62 %
26.01.2021 11:58 3,1 C 2,8 C 1,7 C 96 % 1017,5 hPa 0,0 l/m 0 min 2 min 42 W/m 3,2 km/h (1 Bft) 93,62 %
26.01.2021 12:00 3,1 C 2,8 C 2,3 C 96 % 1017,5 hPa 0,0 l/m 0 min 2 min 49 W/m 3,2 km/h (1 Bft) 91,49 %
26.01.2021 12:02 3,1 C 2,8 C 2,3 C 96 % 1017,5 hPa 0,0 l/m 0 min 2 min 62 W/m 3,2 km/h (1 Bft) 95,65 %
26.01.2021 12:04 3,2 C 2,8 C 2,3 C 96 % 1017,5 hPa 0,0 l/m 0 min 2 min 85 W/m 3,2 km/h (1 Bft) 95,74 %
26.01.2021 12:08 3,2 C 3,3 C 2,8 C 97 % 1017,5 hPa 0,0 l/m 0 min 4 min 171 W/m 3,2 km/h (1 Bft) 94,68 %
26.01.2021 12:10 3,3 C 4,4 C 3,4 C 97 % 1017,5 hPa 0,0 l/m 2 min 2 min 245 W/m 3,2 km/h (1 Bft) 95,74 %
26.01.2021 12:12 3,4 C 4,4 C 3,9 C 96 % 1017,5 hPa 0,0 l/m 2 min 0 min 281 W/m 6,4 km/h (2 Bft) 93,48 %
26.01.2021 12:14 3,4 C 4,4 C 3,9 C 97 % 1017,6 hPa 0,0 l/m 2 min 2 min 229 W/m 3,2 km/h (1 Bft) 97,87 %
26.01.2021 12:16 3,5 C 5,0 C 3,9 C 97 % 1017,5 hPa 0,0 l/m 2 min 2 min 303 W/m 3,2 km/h (1 Bft) 97,87 %
26.01.2021 12:18 3,6 C 5,0 C 3,9 C 97 % 1017,5 hPa 0,0 l/m 2 min 2 min 258 W/m 3,2 km/h (1 Bft) 95,74 %
26.01.2021 12:20 3,6 C 5,0 C 3,9 C 97 % 1017,4 hPa 0,0 l/m 2 min 2 min 226 W/m 0,0 km/h (0 Bft) 97,87 %
26.01.2021 12:22 3,7 C 5,0 C 3,9 C 97 % 1017,4 hPa 0,0 l/m 2 min 2 min 221 W/m 3,2 km/h (1 Bft) 97,87 %
26.01.2021 12:24 3,8 C 5,0 C 3,9 C 97 % 1017,5 hPa 0,0 l/m 2 min 0 min 225 W/m 3,2 km/h (1 Bft) 97,87 %
26.01.2021 12:26 3,8 C 5,0 C 3,9 C 97 % 1017,5 hPa 0,0 l/m 2 min 2 min 216 W/m 0,0 km/h (0 Bft) 95,65 %
26.01.2021 12:28 3,8 C 5,6 C 4,5 C 97 % 1017,5 hPa 0,0 l/m 2 min 0 min 243 W/m 0,0 km/h (0 Bft) 97,87 %
26.01.2021 12:30 3,9 C 5,0 C 3,9 C 97 % 1017,5 hPa 0,0 l/m 0 min 0 min 184 W/m 3,2 km/h (1 Bft) 95,74 %
26.01.2021 12:32 3,9 C 4,4 C 3,4 C 97 % 1017,5 hPa 0,0 l/m 0 min 2 min 155 W/m 9,7 km/h (2 Bft) 95,74 %
26.01.2021 12:34 3,9 C 3,9 C 3,4 C 97 % 1017,5 hPa 0,0 l/m 0 min 2 min 142 W/m 3,2 km/h (1 Bft) 97,87 %
26.01.2021 12:36 3,9 C 3,9 C 3,4 C 97 % 1017,6 hPa 0,0 l/m 0 min 0 min 136 W/m 3,2 km/h (1 Bft) 95,65 %
26.01.2021 12:38 4,0 C 3,9 C 3,4 C 97 % 1017,5 hPa 0,0 l/m 0 min 0 min 127 W/m 0,0 km/h (0 Bft) 97,87 %
26.01.2021 12:40 4,0 C 4,4 C 3,4 C 97 % 1017,6 hPa 0,0 l/m 0 min 0 min 125 W/m 0,0 km/h (0 Bft) 97,87 %
26.01.2021 12:42 4,0 C 3,9 C 3,4 C 97 % 1017,6 hPa 0,0 l/m 0 min 0 min 109 W/m 0,0 km/h (0 Bft) 95,74 %
26.01.2021 12:44 4,0 C 3,9 C 3,4 C 97 % 1017,6 hPa 0,0 l/m 0 min 0 min 105 W/m 0,0 km/h (0 Bft) 97,87 %
26.01.2021 12:46 4,0 C 3,9 C 3,4 C 96 % 1017,6 hPa 0,0 l/m 0 min 0 min 113 W/m 0,0 km/h (0 Bft) 97,87 %
26.01.2021 12:48 4,1 C 3,9 C 3,4 C 96 % 1017,6 hPa 0,0 l/m 0 min 0 min 113 W/m 3,2 km/h (1 Bft) 97,83 %
26.01.2021 12:50 4,1 C 3,9 C 3,4 C 96 % 1017,7 hPa 0,0 l/m 0 min 0 min 107 W/m 0,0 km/h (0 Bft) 97,87 %
26.01.2021 12:52 4,1 C 3,9 C 3,4 C 96 % 1017,7 hPa 0,0 l/m 0 min 0 min 125 W/m 3,2 km/h (1 Bft) 95,74 %
26.01.2021 12:54 4,1 C 4,4 C 3,4 C 96 % 1017,7 hPa 0,0 l/m 0 min 0 min 149 W/m 3,2 km/h (1 Bft) 97,87 %
26.01.2021 12:56 4,1 C 4,4 C 3,4 C 96 % 1017,7 hPa 0,0 l/m 0 min 0 min 153 W/m 0,0 km/h (0 Bft) 97,14 %
26.01.2021 12:58 4,1 C 3,9 C 3,4 C 96 % 1017,7 hPa 0,0 l/m 0 min 0 min 100 W/m 0,0 km/h (0 Bft) 97,87 %
26.01.2021 13:00 4,1 C 3,9 C 3,4 C 96 % 1017,7 hPa 0,0 l/m 0 min 0 min 82 W/m 0,0 km/h (0 Bft) 95,74 %
26.01.2021 13:02 4,2 C 3,9 C 3,4 C 96 % 1017,7 hPa 0,0 l/m 0 min 0 min 95 W/m 0,0 km/h (0 Bft) 97,83 %
26.01.2021 13:04 4,2 C 4,4 C 3,4 C 96 % 1017,7 hPa 0,0 l/m 0 min 0 min 105 W/m 3,2 km/h (1 Bft) 97,87 %
26.01.2021 13:06 4,3 C 3,9 C 3,4 C 96 % 1017,8 hPa 0,0 l/m 0 min 0 min 90 W/m 0,0 km/h (0 Bft) 97,87 %
26.01.2021 13:08 4,3 C 3,9 C 3,4 C 96 % 1017,8 hPa 0,0 l/m 0 min 0 min 79 W/m 0,0 km/h (0 Bft) 97,87 %
26.01.2021 13:10 4,3 C 3,9 C 2,8 C 96 % 1017,7 hPa 0,0 l/m 0 min 0 min 64 W/m 3,2 km/h (1 Bft) 95,74 %
26.01.2021 13:12 4,3 C 3,9 C 2,8 C 96 % 1017,7 hPa 0,0 l/m 0 min 0 min 67 W/m 0,0 km/h (0 Bft) 95,74 %
26.01.2021 13:14 4,3 C 3,9 C 2,8 C 96 % 1017,8 hPa 0,0 l/m 0 min 0 min 76 W/m 3,2 km/h (1 Bft) 95,65 %
26.01.2021 13:16 4,3 C 3,9 C 2,8 C 96 % 1017,8 hPa 0,0 l/m 0 min 0 min 92 W/m 3,2 km/h (1 Bft) 95,74 %
26.01.2021 13:18 4,3 C 4,4 C 2,8 C 96 % 1017,8 hPa 0,0 l/m 0 min 0 min 132 W/m 0,0 km/h (0 Bft) 95,74 %
26.01.2021 13:20 4,3 C 4,4 C 2,8 C 96 % 1017,8 hPa 0,0 l/m 0 min 0 min 159 W/m 3,2 km/h (1 Bft) 97,87 %
26.01.2021 13:22 4,4 C 4,4 C 2,8 C 96 % 1017,8 hPa 0,0 l/m 0 min 0 min 174 W/m 3,2 km/h (1 Bft) 95,74 %
26.01.2021 13:24 4,4 C 4,4 C 2,8 C 96 % 1017,8 hPa 0,0 l/m 0 min 0 min 166 W/m 0,0 km/h (0 Bft) 93,62 %
26.01.2021 13:26 4,4 C 5,0 C 2,8 C 96 % 1017,7 hPa 0,0 l/m 2 min 0 min 196 W/m 3,2 km/h (1 Bft) 93,48 %
26.01.2021 13:28 4,4 C 5,6 C 4,5 C 95 % 1017,7 hPa 0,0 l/m 2 min 0 min 239 W/m 3,2 km/h (1 Bft) 97,87 %
26.01.2021 13:30 4,5 C 5,6 C 4,5 C 95 % 1017,7 hPa 0,0 l/m 0 min 0 min 162 W/m 0,0 km/h (0 Bft) 95,74 %
26.01.2021 13:32 4,5 C 5,6 C 4,5 C 95 % 1017,7 hPa 0,0 l/m 2 min 0 min 192 W/m 3,2 km/h (1 Bft) 93,62 %
26.01.2021 13:34 4,5 C 6,1 C 5,0 C 95 % 1017,6 hPa 0,0 l/m 2 min 0 min 296 W/m 3,2 km/h (1 Bft) 95,74 %
26.01.2021 13:36 4,6 C 5,6 C 5,0 C 95 % 1017,7 hPa 0,0 l/m 2 min 0 min 200 W/m 3,2 km/h (1 Bft) 97,87 %
26.01.2021 13:38 4,6 C 5,0 C 4,5 C 95 % 1017,6 hPa 0,0 l/m 2 min 0 min 214 W/m 3,2 km/h (1 Bft) 97,83 %
26.01.2021 13:40 4,6 C 5,0 C 3,9 C 95 % 1017,7 hPa 0,0 l/m 0 min 0 min 122 W/m 0,0 km/h (0 Bft) 97,87 %
26.01.2021 13:42 4,7 C 4,4 C 3,9 C 95 % 1017,7 hPa 0,0 l/m 0 min 0 min 118 W/m 3,2 km/h (1 Bft) 93,62 %
26.01.2021 13:44 4,6 C 4,4 C 3,9 C 95 % 1017,7 hPa 0,0 l/m 0 min 0 min 138 W/m 9,7 km/h (2 Bft) 95,74 %
26.01.2021 13:46 4,7 C 5,0 C 3,9 C 95 % 1017,7 hPa 0,0 l/m 0 min 0 min 159 W/m 3,2 km/h (1 Bft) 97,87 %
26.01.2021 13:48 4,7 C 5,0 C 3,9 C 95 % 1017,8 hPa 0,0 l/m 2 min 0 min 192 W/m 6,4 km/h (2 Bft) 95,74 %
26.01.2021 13:50 4,7 C 5,0 C 3,9 C 95 % 1017,7 hPa 0,0 l/m 2 min 0 min 213 W/m 3,2 km/h (1 Bft) 97,83 %
26.01.2021 13:52 4,7 C 5,0 C 3,9 C 95 % 1017,7 hPa 0,0 l/m 2 min 0 min 180 W/m 0,0 km/h (0 Bft) 95,74 %
26.01.2021 13:54 4,7 C 5,0 C 3,9 C 95 % 1017,7 hPa 0,0 l/m 0 min 0 min 142 W/m 9,7 km/h (2 Bft) 97,87 %
26.01.2021 13:56 4,7 C 5,0 C 3,9 C 95 % 1017,7 hPa 0,0 l/m 0 min 0 min 98 W/m 3,2 km/h (1 Bft) 97,87 %
26.01.2021 13:58 4,7 C 5,0 C 3,4 C 94 % 1017,8 hPa 0,0 l/m 0 min 0 min 90 W/m 0,0 km/h (0 Bft) 97,87 %
26.01.2021 14:00 4,7 C 4,4 C 3,4 C 94 % 1017,7 hPa 0,0 l/m 0 min 0 min 97 W/m 3,2 km/h (1 Bft) 97,87 %
26.01.2021 14:02 4,7 C 5,0 C 3,4 C 94 % 1017,7 hPa 0,0 l/m 0 min 0 min 113 W/m 0,0 km/h (0 Bft) 95,65 %
26.01.2021 14:04 4,7 C 5,0 C 3,9 C 94 % 1017,7 hPa 0,0 l/m 0 min 0 min 112 W/m 0,0 km/h (0 Bft) 97,87 %
26.01.2021 14:06 4,8 C 5,0 C 3,9 C 94 % 1017,7 hPa 0,0 l/m 0 min 0 min 144 W/m 3,2 km/h (1 Bft) 97,87 %
26.01.2021 14:08 4,8 C 5,6 C 3,9 C 94 % 1017,7 hPa 0,0 l/m 0 min 0 min 164 W/m 0,0 km/h (0 Bft) 97,87 %
26.01.2021 14:10 4,8 C 5,6 C 3,9 C 94 % 1017,7 hPa 0,0 l/m 2 min 0 min 176 W/m 0,0 km/h (0 Bft) 100,00 %
26.01.2021 14:12 4,8 C 6,7 C 5,0 C 94 % 1017,8 hPa 0,0 l/m 2 min 0 min 244 W/m 9,7 km/h (2 Bft) 97,87 %
26.01.2021 14:14 4,9 C 6,1 C 5,0 C 94 % 1017,7 hPa 0,0 l/m 2 min 0 min 226 W/m 3,2 km/h (1 Bft) 97,83 %
26.01.2021 14:16 4,9 C 6,7 C 5,0 C 94 % 1017,8 hPa 0,0 l/m 2 min 0 min 249 W/m 3,2 km/h (1 Bft) 97,87 %
26.01.2021 14:18 5,0 C 7,2 C 5,6 C 94 % 1017,8 hPa 0,0 l/m 2 min 0 min 280 W/m 9,7 km/h (2 Bft) 97,87 %
26.01.2021 14:20 5,0 C 8,9 C 7,8 C 94 % 1017,8 hPa 0,0 l/m 2 min 0 min 336 W/m 0,0 km/h (0 Bft) 95,74 %
26.01.2021 14:22 5,1 C 7,8 C 7,3 C 94 % 1017,8 hPa 0,0 l/m 2 min 0 min 266 W/m 3,2 km/h (1 Bft) 97,87 %
26.01.2021 14:24 5,1 C 7,2 C 6,7 C 94 % 1017,8 hPa 0,0 l/m 2 min 0 min 210 W/m 0,0 km/h (0 Bft) 95,74 %
26.01.2021 14:26 5,3 C 7,2 C 6,7 C 94 % 1017,8 hPa 0,0 l/m 2 min 0 min 179 W/m 0,0 km/h (0 Bft) 95,65 %
26.01.2021 14:28 5,3 C 7,2 C 6,7 C 94 % 1017,8 hPa 0,0 l/m 2 min 0 min 180 W/m 3,2 km/h (1 Bft) 97,87 %
26.01.2021 14:30 5,3 C 6,7 C 6,2 C 93 % 1017,8 hPa 0,0 l/m 2 min 0 min 242 W/m 12,9 km/h (3 Bft) 97,87 %
26.01.2021 14:32 5,4 C 6,7 C 6,2 C 93 % 1017,7 hPa 0,0 l/m 2 min 0 min 205 W/m 3,2 km/h (1 Bft) 97,87 %
26.01.2021 14:34 5,4 C 6,7 C 5,6 C 93 % 1017,7 hPa 0,0 l/m 2 min 0 min 172 W/m 3,2 km/h (1 Bft) 93,62 %
26.01.2021 14:36 5,4 C 6,1 C 5,6 C 93 % 1017,7 hPa 0,0 l/m 2 min 0 min 161 W/m 6,4 km/h (2 Bft) 97,87 %
26.01.2021 14:38 5,4 C 6,1 C 5,6 C 92 % 1017,8 hPa 0,0 l/m 0 min 0 min 124 W/m 3,2 km/h (1 Bft) 97,83 %
26.01.2021 14:40 5,5 C 5,6 C 5,0 C 92 % 1017,7 hPa 0,0 l/m 0 min 0 min 84 W/m 3,2 km/h (1 Bft) 97,87 %
26.01.2021 14:42 5,5 C 5,6 C 4,5 C 92 % 1017,8 hPa 0,0 l/m 0 min 0 min 64 W/m 3,2 km/h (1 Bft) 95,74 %
26.01.2021 14:44 5,5 C 5,0 C 4,5 C 92 % 1017,8 hPa 0,0 l/m 0 min 0 min 60 W/m 3,2 km/h (1 Bft) 97,87 %
26.01.2021 14:46 5,5 C 5,0 C 3,9 C 92 % 1017,8 hPa 0,0 l/m 0 min 0 min 63 W/m 0,0 km/h (0 Bft) 97,87 %
26.01.2021 14:48 5,4 C 5,0 C 3,9 C 91 % 1017,8 hPa 0,0 l/m 0 min 0 min 55 W/m 0,0 km/h (0 Bft) 100,00 %
26.01.2021 14:50 5,4 C 5,0 C 3,9 C 91 % 1017,8 hPa 0,0 l/m 0 min 0 min 58 W/m 3,2 km/h (1 Bft) 97,87 %
26.01.2021 14:52 5,4 C 5,0 C 3,9 C 91 % 1017,9 hPa 0,0 l/m 0 min 0 min 55 W/m 0,0 km/h (0 Bft) 100,00 %
26.01.2021 14:54 5,4 C 5,0 C 3,4 C 91 % 1017,9 hPa 0,0 l/m 0 min 0 min 52 W/m 0,0 km/h (0 Bft) 100,00 %
26.01.2021 14:56 5,4 C 5,0 C 3,4 C 91 % 1017,9 hPa 0,0 l/m 0 min 0 min 45 W/m 3,2 km/h (1 Bft) 100,00 %
26.01.2021 14:58 5,3 C 4,4 C 3,4 C 91 % 1017,9 hPa 0,0 l/m 0 min 0 min 35 W/m 0,0 km/h (0 Bft) 100,00 %
26.01.2021 15:00 5,3 C 4,4 C 3,4 C 91 % 1017,9 hPa 0,0 l/m 0 min 0 min 25 W/m 0,0 km/h (0 Bft) 100,00 %
26.01.2021 15:02 5,3 C 4,4 C 3,4 C 91 % 1018,0 hPa 0,0 l/m 0 min 0 min 18 W/m 0,0 km/h (0 Bft) 97,87 %
26.01.2021 15:04 5,3 C 4,4 C 3,4 C 91 % 1018,0 hPa 0,0 l/m 0 min 0 min 20 W/m 3,2 km/h (1 Bft) 97,87 %
26.01.2021 15:06 5,2 C 4,4 C 3,4 C 91 % 1018,0 hPa 0,0 l/m 0 min 0 min 37 W/m 3,2 km/h (1 Bft) 100,00 %
26.01.2021 15:08 5,2 C 5,0 C 3,4 C 91 % 1018,0 hPa 0,0 l/m 0 min 0 min 76 W/m 3,2 km/h (1 Bft) 100,00 %
26.01.2021 15:10 5,1 C 5,0 C 3,4 C 91 % 1018,0 hPa 0,0 l/m 0 min 0 min 86 W/m 0,0 km/h (0 Bft) 100,00 %
26.01.2021 15:12 5,1 C 5,0 C 3,4 C 91 % 1018,0 hPa 0,0 l/m 0 min 0 min 78 W/m 3,2 km/h (1 Bft) 97,87 %
26.01.2021 15:14 5,1 C 5,0 C 3,4 C 91 % 1018,0 hPa 0,0 l/m 0 min 0 min 69 W/m 0,0 km/h (0 Bft) 100,00 %
26.01.2021 15:16 5,1 C 5,0 C 3,4 C 91 % 1018,0 hPa 0,0 l/m 0 min 0 min 68 W/m 0,0 km/h (0 Bft) 100,00 %
26.01.2021 15:18 5,1 C 5,0 C 3,4 C 91 % 1018,1 hPa 0,0 l/m 0 min 0 min 61 W/m 3,2 km/h (1 Bft) 97,87 %
26.01.2021 15:20 5,1 C 5,0 C 3,4 C 91 % 1018,2 hPa 0,0 l/m 0 min 0 min 55 W/m 0,0 km/h (0 Bft) 97,83 %
26.01.2021 15:22 5,1 C 5,0 C 3,4 C 91 % 1018,2 hPa 0,0 l/m 0 min 0 min 51 W/m 3,2 km/h (1 Bft) 100,00 %
26.01.2021 15:24 5,1 C 5,0 C 3,4 C 91 % 1018,2 hPa 0,0 l/m 0 min 0 min 43 W/m 0,0 km/h (0 Bft) 100,00 %
26.01.2021 15:26 5,1 C 5,0 C 3,4 C 91 % 1018,2 hPa 0,0 l/m 0 min 0 min 35 W/m 0,0 km/h (0 Bft) 100,00 %
26.01.2021 15:28 5,1 C 5,0 C 3,4 C 91 % 1018,2 hPa 0,0 l/m 0 min 0 min 38 W/m 0,0 km/h (0 Bft) 100,00 %
26.01.2021 15:30 5,1 C 5,0 C 3,4 C 91 % 1018,2 hPa 0,0 l/m 0 min 0 min 46 W/m 0,0 km/h (0 Bft) 100,00 %
26.01.2021 15:32 5,1 C 5,0 C 3,4 C 91 % 1018,2 hPa 0,0 l/m 0 min 0 min 44 W/m 0,0 km/h (0 Bft) 100,00 %
26.01.2021 15:34 5,1 C 4,4 C 3,4 C 91 % 1018,2 hPa 0,0 l/m 0 min 0 min 35 W/m 0,0 km/h (0 Bft) 97,83 %
26.01.2021 15:36 5,1 C 4,4 C 3,4 C 91 % 1018,2 hPa 0,0 l/m 0 min 0 min 21 W/m 3,2 km/h (1 Bft) 100,00 %
26.01.2021 15:38 5,0 C 4,4 C 3,4 C 91 % 1018,3 hPa 0,0 l/m 0 min 0 min 24 W/m 0,0 km/h (0 Bft) 100,00 %
26.01.2021 15:40 5,0 C 4,4 C 3,4 C 91 % 1018,3 hPa 0,0 l/m 0 min 0 min 35 W/m 0,0 km/h (0 Bft) 100,00 %
26.01.2021 15:42 5,0 C 5,0 C 3,4 C 91 % 1018,3 hPa 0,0 l/m 0 min 0 min 72 W/m 3,2 km/h (1 Bft) 100,00 %
26.01.2021 15:44 5,0 C 5,0 C 3,4 C 91 % 1018,3 hPa 0,0 l/m 2 min 0 min 106 W/m 3,2 km/h (1 Bft) 100,00 %
26.01.2021 15:46 5,0 C 5,0 C 3,4 C 90 % 1018,4 hPa 0,0 l/m 2 min 0 min 98 W/m 0,0 km/h (0 Bft) 100,00 %
26.01.2021 15:48 5,0 C 5,0 C 3,4 C 90 % 1018,4 hPa 0,0 l/m 0 min 0 min 75 W/m 0,0 km/h (0 Bft) 100,00 %
26.01.2021 15:50 5,0 C 5,0 C 3,4 C 90 % 1018,4 hPa 0,0 l/m 0 min 0 min 65 W/m 3,2 km/h (1 Bft) 97,87 %
26.01.2021 15:52 5,0 C 5,0 C 3,4 C 90 % 1018,4 hPa 0,0 l/m 0 min 0 min 61 W/m 3,2 km/h (1 Bft) 97,87 %
26.01.2021 15:54 5,0 C 5,0 C 3,4 C 90 % 1018,5 hPa 0,0 l/m 0 min 0 min 51 W/m 3,2 km/h (1 Bft) 97,87 %
26.01.2021 15:56 5,0 C 4,4 C 3,4 C 90 % 1018,5 hPa 0,0 l/m 0 min 0 min 40 W/m 3,2 km/h (1 Bft) 97,83 %
26.01.2021 15:58 5,0 C 4,4 C 3,4 C 90 % 1018,6 hPa 0,0 l/m 0 min 0 min 38 W/m 3,2 km/h (1 Bft) 100,00 %
26.01.2021 16:00 5,0 C 4,4 C 3,4 C 90 % 1018,5 hPa 0,0 l/m 0 min 0 min 45 W/m 3,2 km/h (1 Bft) 100,00 %
26.01.2021 16:02 5,0 C 4,4 C 3,4 C 90 % 1018,6 hPa 0,0 l/m 0 min 0 min 50 W/m 3,2 km/h (1 Bft) 100,00 %
26.01.2021 16:04 5,0 C 5,0 C 3,4 C 90 % 1018,5 hPa 0,0 l/m 0 min 0 min 57 W/m 0,0 km/h (0 Bft) 97,87 %
26.01.2021 16:06 5,0 C 4,4 C 3,4 C 90 % 1018,6 hPa 0,0 l/m 0 min 0 min 51 W/m 0,0 km/h (0 Bft) 97,87 %
26.01.2021 16:08 5,0 C 4,4 C 3,4 C 90 % 1018,6 hPa 0,0 l/m 0 min 0 min 49 W/m 3,2 km/h (1 Bft) 100,00 %
26.01.2021 16:10 5,0 C 5,0 C 3,4 C 90 % 1018,5 hPa 0,0 l/m 0 min 0 min 61 W/m 0,0 km/h (0 Bft) 100,00 %
26.01.2021 16:12 4,9 C 5,0 C 3,4 C 90 % 1018,6 hPa 0,0 l/m 2 min 0 min 69 W/m 0,0 km/h (0 Bft) 100,00 %
26.01.2021 16:14 4,9 C 5,0 C 3,4 C 90 % 1018,6 hPa 0,0 l/m 2 min 0 min 67 W/m 0,0 km/h (0 Bft) 100,00 %
26.01.2021 16:16 4,9 C 4,4 C 3,4 C 89 % 1018,6 hPa 0,0 l/m 0 min 0 min 60 W/m 0,0 km/h (0 Bft) 97,87 %
26.01.2021 16:18 4,9 C 4,4 C 3,4 C 89 % 1018,6 hPa 0,0 l/m 0 min 0 min 48 W/m 0,0 km/h (0 Bft) 95,74 %
26.01.2021 16:20 4,9 C 5,0 C 2,8 C 89 % 1018,7 hPa 0,0 l/m 0 min 0 min 58 W/m 0,0 km/h (0 Bft) 97,87 %
26.01.2021 16:22 4,9 C 4,4 C 2,8 C 89 % 1018,6 hPa 0,0 l/m 0 min 0 min 43 W/m 0,0 km/h (0 Bft) 95,74 %
26.01.2021 16:24 4,9 C 5,0 C 2,8 C 89 % 1018,7 hPa 0,0 l/m 0 min 0 min 37 W/m 0,0 km/h (0 Bft) 95,65 %
26.01.2021 16:26 4,9 C 5,0 C 2,8 C 89 % 1018,7 hPa 0,0 l/m 2 min 0 min 67 W/m 0,0 km/h (0 Bft) 97,87 %
26.01.2021 16:28 4,9 C 5,0 C 2,8 C 89 % 1018,7 hPa 0,0 l/m 0 min 0 min 47 W/m 0,0 km/h (0 Bft) 97,87 %
26.01.2021 16:30 4,9 C 5,0 C 2,8 C 89 % 1018,6 hPa 0,0 l/m 0 min 0 min 36 W/m 0,0 km/h (0 Bft) 97,87 %
26.01.2021 16:32 4,9 C 4,4 C 2,8 C 89 % 1018,7 hPa 0,0 l/m 0 min 0 min 34 W/m 0,0 km/h (0 Bft) 97,87 %
26.01.2021 16:34 4,9 C 4,4 C 2,8 C 89 % 1018,6 hPa 0,0 l/m 0 min 0 min 28 W/m 0,0 km/h (0 Bft) 100,00 %
26.01.2021 16:36 4,9 C 4,4 C 2,8 C 89 % 1018,7 hPa 0,0 l/m 0 min 0 min 21 W/m 0,0 km/h (0 Bft) 97,83 %
26.01.2021 16:38 4,9 C 4,4 C 2,8 C 89 % 1018,7 hPa 0,0 l/m 0 min 0 min 23 W/m 0,0 km/h (0 Bft) 93,62 %
26.01.2021 16:40 4,9 C 4,4 C 2,3 C 89 % 1018,7 hPa 0,0 l/m 0 min 0 min 22 W/m 0,0 km/h (0 Bft) 97,87 %
26.01.2021 16:42 4,9 C 4,4 C 2,3 C 89 % 1018,7 hPa 0,0 l/m 0 min 0 min 18 W/m 0,0 km/h (0 Bft) 97,87 %
26.01.2021 16:44 4,8 C 3,9 C 2,3 C 89 % 1018,7 hPa 0,0 l/m 0 min 0 min 16 W/m 0,0 km/h (0 Bft) 95,74 %
26.01.2021 16:46 4,8 C 3,9 C 2,3 C 89 % 1018,7 hPa 0,0 l/m 0 min 0 min 15 W/m 0,0 km/h (0 Bft) 97,87 %
26.01.2021 16:48 4,8 C 3,9 C 2,3 C 89 % 1018,7 hPa 0,0 l/m 0 min 0 min 14 W/m 0,0 km/h (0 Bft) 95,65 %
26.01.2021 16:50 4,8 C 3,9 C 2,3 C 89 % 1018,7 hPa 0,0 l/m 0 min 0 min 14 W/m 0,0 km/h (0 Bft) 93,62 %
26.01.2021 16:52 4,8 C 3,9 C 2,3 C 89 % 1018,7 hPa 0,0 l/m 0 min 0 min 14 W/m 0,0 km/h (0 Bft) 95,74 %
26.01.2021 16:54 4,7 C 3,9 C 2,3 C 88 % 1018,7 hPa 0,0 l/m 0 min 0 min 12 W/m 0,0 km/h (0 Bft) 91,49 %
26.01.2021 16:56 4,7 C 3,9 C 2,3 C 88 % 1018,7 hPa 0,0 l/m 0 min 0 min 12 W/m 0,0 km/h (0 Bft) 91,49 %
26.01.2021 16:58 4,7 C 3,9 C 2,3 C 88 % 1018,6 hPa 0,0 l/m 0 min 0 min 12 W/m 0,0 km/h (0 Bft) 93,48 %
26.01.2021 17:00 4,6 C 3,9 C 2,3 C 88 % 1018,6 hPa 0,0 l/m 0 min 0 min 11 W/m 0,0 km/h (0 Bft) 91,49 %
26.01.2021 17:02 4,6 C 3,9 C 2,3 C 88 % 1018,7 hPa 0,0 l/m 0 min 0 min 10 W/m 0,0 km/h (0 Bft) 93,62 %
26.01.2021 17:04 4,6 C 3,9 C 2,3 C 88 % 1018,7 hPa 0,0 l/m 0 min 0 min 9 W/m 0,0 km/h (0 Bft) 93,62 %
26.01.2021 17:06 4,5 C 3,9 C 2,3 C 88 % 1018,7 hPa 0,0 l/m 0 min 0 min 8 W/m 0,0 km/h (0 Bft) 95,74 %
26.01.2021 17:08 4,5 C 3,9 C 1,7 C 88 % 1018,6 hPa 0,0 l/m 0 min 0 min 7 W/m 0,0 km/h (0 Bft) 95,74 %
26.01.2021 17:10 4,5 C 3,9 C 1,7 C 88 % 1018,6 hPa 0,0 l/m 0 min 0 min 5 W/m 0,0 km/h (0 Bft) 95,65 %
26.01.2021 17:12 4,5 C 3,9 C 1,7 C 88 % 1018,6 hPa 0,0 l/m 0 min 0 min 4 W/m 0,0 km/h (0 Bft) 95,74 %
26.01.2021 17:14 4,4 C 3,9 C 1,7 C 88 % 1018,6 hPa 0,0 l/m 0 min 0 min 0 W/m 0,0 km/h (0 Bft) 97,87 %
26.01.2021 17:16 4,4 C 3,9 C 1,7 C 88 % 1018,7 hPa 0,0 l/m 0 min 0 min 0 W/m 0,0 km/h (0 Bft) 95,74 %
26.01.2021 17:18 4,4 C 3,9 C 1,7 C 88 % 1018,7 hPa 0,0 l/m 0 min 0 min 0 W/m 0,0 km/h (0 Bft) 93,62 %
26.01.2021 17:20 4,3 C 3,3 C 1,7 C 87 % 1018,7 hPa 0,0 l/m 0 min 0 min 0 W/m 0,0 km/h (0 Bft) 95,74 %
26.01.2021 17:22 4,3 C 3,3 C 1,7 C 87 % 1018,6 hPa 0,0 l/m 0 min 0 min 0 W/m 0,0 km/h (0 Bft) 95,65 %
26.01.2021 17:24 4,3 C 3,3 C 1,7 C 87 % 1018,6 hPa 0,0 l/m 0 min 0 min 0 W/m 0,0 km/h (0 Bft) 95,74 %
26.01.2021 17:26 4,3 C 3,3 C 1,7 C 87 % 1018,7 hPa 0,0 l/m 0 min 0 min 0 W/m 0,0 km/h (0 Bft) 95,74 %
26.01.2021 17:28 4,3 C 3,3 C 1,7 C 87 % 1018,7 hPa 0,0 l/m 0 min 0 min 0 W/m 0,0 km/h (0 Bft) 95,74 %
26.01.2021 17:30 4,2 C 3,3 C 1,7 C 87 % 1018,7 hPa 0,0 l/m 0 min 0 min 0 W/m 0,0 km/h (0 Bft) 95,74 %
26.01.2021 17:32 4,2 C 3,3 C 1,7 C 87 % 1018,7 hPa 0,0 l/m 0 min 0 min 0 W/m 0,0 km/h (0 Bft) 95,74 %
26.01.2021 17:34 4,1 C 3,3 C 1,7 C 87 % 1018,8 hPa 0,0 l/m 0 min 0 min 0 W/m 0,0 km/h (0 Bft) 93,48 %
26.01.2021 17:36 4,1 C 3,3 C 1,7 C 87 % 1018,8 hPa 0,0 l/m 0 min 0 min 0 W/m 0,0 km/h (0 Bft) 97,87 %
26.01.2021 17:38 4,1 C 3,3 C 1,2 C 87 % 1018,7 hPa 0,0 l/m 0 min 0 min 0 W/m 0,0 km/h (0 Bft) 95,74 %
26.01.2021 17:40 4,0 C 3,3 C 1,2 C 87 % 1018,8 hPa 0,0 l/m 0 min 0 min 0 W/m 0,0 km/h (0 Bft) 97,87 %
26.01.2021 17:42 4,0 C 3,3 C 1,2 C 87 % 1018,8 hPa 0,0 l/m 0 min 0 min 0 W/m 0,0 km/h (0 Bft) 97,87 %
26.01.2021 17:44 4,0 C 2,8 C 1,2 C 87 % 1018,8 hPa 0,0 l/m 0 min 0 min 0 W/m 0,0 km/h (0 Bft) 98,11 %
26.01.2021 17:46 3,9 C 2,8 C 1,2 C 87 % 1018,8 hPa 0,0 l/m 0 min 0 min 0 W/m 0,0 km/h (0 Bft) 95,74 %
26.01.2021 17:48 3,9 C 2,8 C 1,2 C 87 % 1018,8 hPa 0,0 l/m 0 min 0 min 0 W/m 0,0 km/h (0 Bft) 97,87 %
26.01.2021 17:50 3,9 C 2,8 C 1,2 C 87 % 1018,9 hPa 0,0 l/m 0 min 0 min 0 W/m 0,0 km/h (0 Bft) 97,87 %
26.01.2021 17:52 3,8 C 2,8 C 1,2 C 87 % 1018,8 hPa 0,0 l/m 0 min 0 min 0 W/m 0,0 km/h (0 Bft) 97,87 %
26.01.2021 17:54 3,8 C 2,8 C 1,2 C 87 % 1018,8 hPa 0,0 l/m 0 min 0 min 0 W/m 0,0 km/h (0 Bft) 97,87 %
26.01.2021 17:56 3,8 C 2,8 C 1,2 C 87 % 1018,9 hPa 0,0 l/m 0 min 0 min 0 W/m 0,0 km/h (0 Bft) 97,83 %
26.01.2021 17:58 3,7 C 2,8 C 1,2 C 87 % 1018,9 hPa 0,0 l/m 0 min 0 min 0 W/m 0,0 km/h (0 Bft) 97,87 %
26.01.2021 18:00 3,6 C 2,8 C 1,2 C 87 % 1018,9 hPa 0,0 l/m 0 min 0 min 0 W/m 0,0 km/h (0 Bft) 97,87 %
26.01.2021 18:02 3,6 C 2,8 C 1,2 C 87 % 1019,0 hPa 0,0 l/m 0 min 0 min 0 W/m 0,0 km/h (0 Bft) 95,74 %
26.01.2021 18:04 3,6 C 2,8 C 1,2 C 87 % 1018,9 hPa 0,0 l/m 0 min 0 min 0 W/m 0,0 km/h (0 Bft) 97,50 %
26.01.2021 18:08 3,5 C 2,8 C 1,2 C 87 % 1018,9 hPa 0,0 l/m 0 min 0 min 0 W/m 0,0 km/h (0 Bft) 97,87 %
26.01.2021 18:10 3,5 C 2,8 C 1,2 C 87 % 1018,9 hPa 0,0 l/m 0 min 0 min 0 W/m 0,0 km/h (0 Bft) 97,83 %
26.01.2021 18:12 3,5 C 2,8 C 1,2 C 87 % 1018,9 hPa 0,0 l/m 0 min 0 min 0 W/m 0,0 km/h (0 Bft) 97,87 %
26.01.2021 18:14 3,5 C 2,8 C 1,2 C 87 % 1018,9 hPa 0,0 l/m 0 min 0 min 0 W/m 0,0 km/h (0 Bft) 97,87 %
26.01.2021 18:16 3,5 C 2,8 C 1,2 C 88 % 1018,8 hPa 0,0 l/m 0 min 0 min 0 W/m 0,0 km/h (0 Bft) 97,87 %
26.01.2021 18:18 3,5 C 2,8 C 1,2 C 88 % 1018,9 hPa 0,0 l/m 0 min 0 min 0 W/m 0,0 km/h (0 Bft) 97,87 %
26.01.2021 18:20 3,5 C 2,8 C 1,2 C 88 % 1018,9 hPa 0,0 l/m 0 min 0 min 0 W/m 0,0 km/h (0 Bft) 95,74 %
26.01.2021 18:22 3,4 C 2,8 C 1,2 C 87 % 1018,9 hPa 0,0 l/m 0 min 0 min 0 W/m 0,0 km/h (0 Bft) 97,83 %
26.01.2021 18:24 3,4 C 2,8 C 1,2 C 87 % 1018,9 hPa 0,0 l/m 0 min 0 min 0 W/m 0,0 km/h (0 Bft) 97,87 %
26.01.2021 18:26 3,4 C 2,8 C 1,2 C 87 % 1018,9 hPa 0,0 l/m 0 min 0 min 0 W/m 0,0 km/h (0 Bft) 97,87 %
26.01.2021 18:28 3,4 C 2,8 C 1,2 C 87 % 1018,9 hPa 0,0 l/m 0 min 0 min 0 W/m 0,0 km/h (0 Bft) 97,87 %
26.01.2021 18:30 3,4 C 2,8 C 1,2 C 87 % 1018,9 hPa 0,0 l/m 0 min 0 min 0 W/m 0,0 km/h (0 Bft) 97,87 %
26.01.2021 18:32 3,4 C 2,8 C 1,2 C 87 % 1018,9 hPa 0,0 l/m 0 min 0 min 0 W/m 0,0 km/h (0 Bft) 97,87 %
26.01.2021 18:34 3,4 C 2,8 C 1,2 C 87 % 1018,9 hPa 0,0 l/m 0 min 0 min 0 W/m 0,0 km/h (0 Bft) 97,83 %
26.01.2021 18:36 3,4 C 2,8 C 1,2 C 87 % 1018,9 hPa 0,0 l/m 0 min 0 min 0 W/m 0,0 km/h (0 Bft) 100,00 %
26.01.2021 18:38 3,4 C 2,8 C 1,2 C 87 % 1018,9 hPa 0,0 l/m 0 min 0 min 0 W/m 0,0 km/h (0 Bft) 100,00 %
26.01.2021 18:40 3,4 C 2,8 C 1,2 C 87 % 1018,9 hPa 0,0 l/m 0 min 0 min 0 W/m 0,0 km/h (0 Bft) 100,00 %
26.01.2021 18:42 3,3 C 2,8 C 1,2 C 87 % 1018,9 hPa 0,0 l/m 0 min 0 min 0 W/m 0,0 km/h (0 Bft) 95,74 %
26.01.2021 18:44 3,3 C 2,8 C 1,2 C 88 % 1018,9 hPa 0,0 l/m 0 min 0 min 0 W/m 0,0 km/h (0 Bft) 100,00 %
26.01.2021 18:46 3,3 C 2,8 C 1,2 C 88 % 1018,9 hPa 0,0 l/m 0 min 0 min 0 W/m 0,0 km/h (0 Bft) 100,00 %
26.01.2021 18:48 3,3 C 2,8 C 1,2 C 88 % 1018,9 hPa 0,0 l/m 0 min 0 min 0 W/m 0,0 km/h (0 Bft) 100,00 %
26.01.2021 18:50 3,3 C 2,8 C 0,6 C 88 % 1018,9 hPa 0,0 l/m 0 min 0 min 0 W/m 0,0 km/h (0 Bft) 100,00 %
26.01.2021 18:52 3,3 C 2,8 C 0,6 C 88 % 1018,9 hPa 0,0 l/m 0 min 0 min 0 W/m 0,0 km/h (0 Bft) 82,98 %
26.01.2021 18:54 3,3 C 2,8 C 0,6 C 88 % 1018,9 hPa 0,0 l/m 0 min 0 min 0 W/m 6,4 km/h (2 Bft) 68,18 %
26.01.2021 18:56 3,3 C 2,8 C 0,6 C 88 % 1018,9 hPa 0,0 l/m 0 min 0 min 0 W/m 0,0 km/h (0 Bft) 97,83 %
26.01.2021 18:58 3,3 C 2,8 C 0,6 C 88 % 1018,9 hPa 0,0 l/m 0 min 0 min 0 W/m 0,0 km/h (0 Bft) 97,87 %
26.01.2021 19:00 3,3 C 2,8 C 0,6 C 88 % 1018,9 hPa 0,0 l/m 0 min 0 min 0 W/m 0,0 km/h (0 Bft) 97,87 %
26.01.2021 19:02 3,2 C 2,2 C 0,6 C 88 % 1018,9 hPa 0,0 l/m 0 min 0 min 0 W/m 0,0 km/h (0 Bft) 94,44 %
26.01.2021 19:04 3,2 C 2,2 C 0,6 C 88 % 1018,9 hPa 0,0 l/m 0 min 0 min 0 W/m 0,0 km/h (0 Bft) 97,87 %
26.01.2021 19:06 3,2 C 2,2 C 0,6 C 88 % 1019,0 hPa 0,0 l/m 0 min 0 min 0 W/m 0,0 km/h (0 Bft) 97,50 %
26.01.2021 19:08 3,1 C 2,2 C 0,6 C 88 % 1018,9 hPa 0,0 l/m 0 min 0 min 0 W/m 0,0 km/h (0 Bft) 98,25 %
26.01.2021 19:10 3,1 C 2,2 C 0,6 C 88 % 1019,0 hPa 0,0 l/m 0 min 0 min 0 W/m 0,0 km/h (0 Bft) 95,74 %
26.01.2021 19:12 3,1 C 2,2 C 0,6 C 88 % 1019,0 hPa 0,0 l/m 0 min 0 min 0 W/m 0,0 km/h (0 Bft) 97,87 %
26.01.2021 19:14 3,1 C 2,2 C 0,6 C 88 % 1019,0 hPa 0,0 l/m 0 min 0 min 0 W/m 0,0 km/h (0 Bft) 95,74 %
26.01.2021 19:16 3,1 C 2,2 C 0,6 C 88 % 1019,0 hPa 0,0 l/m 0 min 0 min 0 W/m 0,0 km/h (0 Bft) 97,87 %
26.01.2021 19:18 3,0 C 2,2 C 0,6 C 88 % 1019,0 hPa 0,0 l/m 0 min 0 min 0 W/m 0,0 km/h (0 Bft) 97,83 %
26.01.2021 19:20 3,0 C 2,2 C 0,6 C 88 % 1019,0 hPa 0,0 l/m 0 min 0 min 0 W/m 0,0 km/h (0 Bft) 97,87 %
26.01.2021 19:22 3,0 C 2,2 C 0,6 C 88 % 1019,0 hPa 0,0 l/m 0 min 0 min 0 W/m 0,0 km/h (0 Bft) 97,87 %
26.01.2021 19:24 3,0 C 2,2 C 0,6 C 89 % 1019,0 hPa 0,0 l/m 0 min 0 min 0 W/m 0,0 km/h (0 Bft) 97,87 %
26.01.2021 19:26 3,0 C 2,2 C 0,6 C 89 % 1019,0 hPa 0,0 l/m 0 min 0 min 0 W/m 0,0 km/h (0 Bft) 95,74 %
26.01.2021 19:28 3,0 C 2,2 C 0,6 C 89 % 1019,0 hPa 0,0 l/m 0 min 0 min 0 W/m 0,0 km/h (0 Bft) 95,65 %
26.01.2021 19:30 3,0 C 2,2 C 0,6 C 89 % 1019,0 hPa 0,0 l/m 0 min 0 min 0 W/m 0,0 km/h (0 Bft) 95,74 %
26.01.2021 19:32 2,9 C 2,2 C 0,6 C 89 % 1019,0 hPa 0,0 l/m 0 min 0 min 0 W/m 0,0 km/h (0 Bft) 97,87 %
26.01.2021 19:34 2,9 C 2,2 C 0,6 C 89 % 1019,0 hPa 0,0 l/m 0 min 0 min 0 W/m 0,0 km/h (0 Bft) 97,87 %
26.01.2021 19:36 2,9 C 2,2 C 0,6 C 89 % 1018,9 hPa 0,0 l/m 0 min 0 min 0 W/m 0,0 km/h (0 Bft) 100,00 %
26.01.2021 19:38 2,9 C 2,2 C 0,0 C 89 % 1018,8 hPa 0,0 l/m 0 min 0 min 0 W/m 0,0 km/h (0 Bft) 97,87 %
26.01.2021 19:40 2,9 C 2,2 C 0,0 C 89 % 1018,9 hPa 0,0 l/m 0 min 0 min 0 W/m 0,0 km/h (0 Bft) 97,87 %
26.01.2021 19:42 2,9 C 1,7 C 0,0 C 89 % 1018,8 hPa 0,0 l/m 0 min 0 min 0 W/m 0,0 km/h (0 Bft) 97,83 %
26.01.2021 19:44 2,8 C 2,2 C 0,0 C 89 % 1018,9 hPa 0,0 l/m 0 min 0 min 0 W/m 0,0 km/h (0 Bft) 95,74 %
26.01.2021 19:46 2,8 C 1,7 C 0,0 C 90 % 1018,9 hPa 0,0 l/m 0 min 0 min 0 W/m 0,0 km/h (0 Bft) 91,49 %
26.01.2021 19:48 2,8 C 1,7 C 0,0 C 90 % 1018,9 hPa 0,0 l/m 0 min 0 min 0 W/m 0,0 km/h (0 Bft) 55,81 %
26.01.2021 19:50 2,8 C 1,7 C 0,0 C 90 % 1018,9 hPa 0,0 l/m 0 min 0 min 0 W/m 0,0 km/h (0 Bft) 97,87 %
26.01.2021 19:52 2,7 C 2,2 C 0,0 C 90 % 1018,9 hPa 0,0 l/m 0 min 0 min 0 W/m 0,0 km/h (0 Bft) 95,65 %
26.01.2021 19:54 2,7 C 2,2 C 0,0 C 90 % 1018,9 hPa 0,0 l/m 0 min 0 min 0 W/m 0,0 km/h (0 Bft) 97,87 %
26.01.2021 19:56 2,7 C 2,2 C 0,0 C 90 % 1018,9 hPa 0,0 l/m 0 min 0 min 0 W/m 0,0 km/h (0 Bft) 97,87 %
26.01.2021 19:58 2,7 C 1,7 C 0,0 C 90 % 1018,8 hPa 0,0 l/m 0 min 0 min 0 W/m 0,0 km/h (0 Bft) 97,87 %
26.01.2021 20:00 2,6 C 1,7 C 0,0 C 90 % 1018,9 hPa 0,0 l/m 0 min 0 min 0 W/m 0,0 km/h (0 Bft) 97,87 %
26.01.2021 20:02 2,6 C 1,7 C 0,0 C 90 % 1018,9 hPa 0,0 l/m 0 min 0 min 0 W/m 0,0 km/h (0 Bft) 95,74 %
26.01.2021 20:04 2,6 C 2,2 C 0,0 C 91 % 1018,8 hPa 0,0 l/m 0 min 0 min 0 W/m 0,0 km/h (0 Bft) 97,83 %
26.01.2021 20:06 2,6 C 2,2 C 0,0 C 91 % 1018,8 hPa 0,0 l/m 0 min 0 min 0 W/m 0,0 km/h (0 Bft) 95,74 %
26.01.2021 20:08 2,6 C 2,2 C 0,6 C 91 % 1018,8 hPa 0,0 l/m 0 min 0 min 0 W/m 0,0 km/h (0 Bft) 97,87 %
26.01.2021 20:10 2,6 C 2,2 C 0,6 C 91 % 1018,8 hPa 0,0 l/m 0 min 0 min 0 W/m 0,0 km/h (0 Bft) 97,67 %
26.01.2021 20:12 2,6 C 2,2 C 0,6 C 91 % 1018,9 hPa 0,0 l/m 0 min 0 min 0 W/m 0,0 km/h (0 Bft) 97,87 %
26.01.2021 20:14 2,6 C 2,2 C 0,6 C 91 % 1018,9 hPa 0,0 l/m 0 min 0 min 0 W/m 0,0 km/h (0 Bft) 97,87 %
26.01.2021 20:16 2,6 C 2,2 C 0,6 C 91 % 1018,7 hPa 0,0 l/m 0 min 0 min 0 W/m 0,0 km/h (0 Bft) 97,83 %
26.01.2021 20:18 2,6 C 2,2 C 0,6 C 91 % 1018,7 hPa 0,0 l/m 0 min 0 min 0 W/m 0,0 km/h (0 Bft) 97,87 %
26.01.2021 20:20 2,6 C 2,2 C 0,6 C 91 % 1018,7 hPa 0,0 l/m 0 min 0 min 0 W/m 0,0 km/h (0 Bft) 97,87 %
26.01.2021 20:22 2,6 C 2,2 C 0,6 C 91 % 1018,8 hPa 0,0 l/m 0 min 0 min 0 W/m 0,0 km/h (0 Bft) 97,87 %
26.01.2021 20:24 2,6 C 2,2 C 0,6 C 92 % 1018,8 hPa 0,0 l/m 0 min 0 min 0 W/m 0,0 km/h (0 Bft) 97,87 %
26.01.2021 20:26 2,6 C 2,2 C 0,6 C 92 % 1018,8 hPa 0,0 l/m 0 min 0 min 0 W/m 0,0 km/h (0 Bft) 95,74 %
26.01.2021 20:27 2,6 C 2,2 C 0,6 C 92 % 1018,8 hPa 0,0 l/m 0 min 0 min 0 W/m 0,0 km/h (0 Bft) 97,83 %
26.01.2021 20:30 2,6 C 2,2 C 0,6 C 92 % 1018,8 hPa 0,0 l/m 0 min 0 min 0 W/m 0,0 km/h (0 Bft) 97,87 %
26.01.2021 20:32 2,6 C 2,2 C 0,6 C 92 % 1018,9 hPa 0,0 l/m 0 min 0 min 0 W/m 0,0 km/h (0 Bft) 100,00 %
26.01.2021 20:34 2,6 C 2,2 C 0,6 C 92 % 1018,9 hPa 0,0 l/m 0 min 0 min 0 W/m 0,0 km/h (0 Bft) 100,00 %
26.01.2021 20:36 2,6 C 2,2 C 0,6 C 92 % 1018,8 hPa 0,0 l/m 0 min 0 min 0 W/m 0,0 km/h (0 Bft) 100,00 %
26.01.2021 20:38 2,6 C 2,2 C 0,6 C 92 % 1018,8 hPa 0,0 l/m 0 min 0 min 0 W/m 0,0 km/h (0 Bft) 100,00 %
26.01.2021 20:40 2,6 C 2,2 C 0,6 C 92 % 1018,7 hPa 0,0 l/m 0 min 0 min 0 W/m 0,0 km/h (0 Bft) 45,95 %
26.01.2021 20:42 2,5 C 2,2 C 0,6 C 92 % 1018,7 hPa 0,0 l/m 0 min 0 min 0 W/m 0,0 km/h (0 Bft) 100,00 %
26.01.2021 20:44 2,5 C 2,2 C 0,6 C 92 % 1018,7 hPa 0,0 l/m 0 min 0 min 0 W/m 0,0 km/h (0 Bft) 100,00 %
26.01.2021 20:46 2,6 C 2,2 C 0,6 C 92 % 1018,8 hPa 0,0 l/m 0 min 0 min 0 W/m 0,0 km/h (0 Bft) 100,00 %
26.01.2021 20:48 2,5 C 2,2 C 0,6 C 92 % 1018,8 hPa 0,0 l/m 0 min 0 min 0 W/m 0,0 km/h (0 Bft) 100,00 %
26.01.2021 20:50 2,5 C 2,2 C 0,6 C 92 % 1018,8 hPa 0,0 l/m 0 min 0 min 0 W/m 0,0 km/h (0 Bft) 100,00 %
26.01.2021 20:52 2,5 C 2,2 C 0,6 C 92 % 1018,8 hPa 0,0 l/m 0 min 0 min 0 W/m 0,0 km/h (0 Bft) 100,00 %
26.01.2021 20:54 2,5 C 1,7 C 0,6 C 92 % 1018,8 hPa 0,0 l/m 0 min 0 min 0 W/m 0,0 km/h (0 Bft) 100,00 %
26.01.2021 20:56 2,5 C 1,7 C 0,6 C 92 % 1018,8 hPa 0,0 l/m 0 min 0 min 0 W/m 0,0 km/h (0 Bft) 100,00 %
26.01.2021 20:58 2,5 C 1,7 C 0,6 C 92 % 1018,8 hPa 0,0 l/m 0 min 0 min 0 W/m 0,0 km/h (0 Bft) 95,74 %
26.01.2021 21:00 2,5 C 1,7 C 0,6 C 92 % 1018,8 hPa 0,0 l/m 0 min 0 min 0 W/m 0,0 km/h (0 Bft) 100,00 %
26.01.2021 21:02 2,5 C 1,7 C 0,6 C 92 % 1018,7 hPa 0,0 l/m 0 min 0 min 0 W/m 0,0 km/h (0 Bft) 100,00 %
26.01.2021 21:04 2,5 C 1,7 C 0,6 C 92 % 1018,8 hPa 0,0 l/m 0 min 0 min 0 W/m 0,0 km/h (0 Bft) 100,00 %
26.01.2021 21:06 2,5 C 1,7 C 0,6 C 93 % 1018,8 hPa 0,0 l/m 0 min 0 min 0 W/m 0,0 km/h (0 Bft) 100,00 %
26.01.2021 21:08 2,5 C 1,7 C 0,6 C 93 % 1018,8 hPa 0,0 l/m 0 min 0 min 0 W/m 0,0 km/h (0 Bft) 97,87 %
26.01.2021 21:10 2,4 C 1,7 C 0,6 C 93 % 1018,7 hPa 0,0 l/m 0 min 0 min 0 W/m 0,0 km/h (0 Bft) 100,00 %
26.01.2021 21:12 2,4 C 1,7 C 0,6 C 93 % 1018,7 hPa 0,0 l/m 0 min 0 min 0 W/m 0,0 km/h (0 Bft) 100,00 %
26.01.2021 21:14 2,4 C 2,2 C 0,6 C 93 % 1018,8 hPa 0,0 l/m 0 min 0 min 0 W/m 0,0 km/h (0 Bft) 97,87 %
26.01.2021 21:16 2,4 C 1,7 C 0,6 C 93 % 1018,9 hPa 0,0 l/m 0 min 0 min 0 W/m 0,0 km/h (0 Bft) 100,00 %
26.01.2021 21:18 2,4 C 2,2 C 0,6 C 93 % 1018,8 hPa 0,0 l/m 0 min 0 min 0 W/m 0,0 km/h (0 Bft) 97,83 %
26.01.2021 21:20 2,4 C 2,2 C 0,6 C 93 % 1018,8 hPa 0,0 l/m 0 min 0 min 0 W/m 0,0 km/h (0 Bft) 95,74 %
26.01.2021 21:22 2,4 C 1,7 C 0,6 C 93 % 1018,8 hPa 0,0 l/m 0 min 0 min 0 W/m 0,0 km/h (0 Bft) 100,00 %
26.01.2021 21:24 2,4 C 1,7 C 0,6 C 93 % 1018,8 hPa 0,0 l/m 0 min 0 min 0 W/m 0,0 km/h (0 Bft) 100,00 %
26.01.2021 21:26 2,4 C 1,7 C 0,6 C 93 % 1018,7 hPa 0,0 l/m 0 min 0 min 0 W/m 0,0 km/h (0 Bft) 100,00 %
26.01.2021 21:28 2,4 C 2,2 C 0,6 C 93 % 1018,8 hPa 0,0 l/m 0 min 0 min 0 W/m 0,0 km/h (0 Bft) 95,74 %
26.01.2021 21:30 2,4 C 2,2 C 0,6 C 93 % 1018,8 hPa 0,0 l/m 0 min 0 min 0 W/m 3,2 km/h (1 Bft) 100,00 %
26.01.2021 21:32 2,4 C 2,2 C 0,6 C 93 % 1018,8 hPa 0,0 l/m 0 min 0 min 0 W/m 0,0 km/h (0 Bft) 95,74 %
26.01.2021 21:34 2,4 C 2,2 C 0,6 C 93 % 1018,8 hPa 0,0 l/m 0 min 0 min 0 W/m 3,2 km/h (1 Bft) 97,87 %
26.01.2021 21:36 2,4 C 2,2 C 0,6 C 93 % 1018,8 hPa 0,0 l/m 0 min 0 min 0 W/m 0,0 km/h (0 Bft) 100,00 %
26.01.2021 21:38 2,4 C 2,2 C 0,6 C 93 % 1018,7 hPa 0,0 l/m 0 min 0 min 0 W/m 0,0 km/h (0 Bft) 95,74 %
26.01.2021 21:40 2,4 C 2,2 C 0,6 C 93 % 1018,6 hPa 0,0 l/m 0 min 0 min 0 W/m 0,0 km/h (0 Bft) 97,87 %
26.01.2021 21:42 2,4 C 2,2 C 0,6 C 93 % 1018,6 hPa 0,0 l/m 0 min 0 min 0 W/m 0,0 km/h (0 Bft) 97,83 %
26.01.2021 21:44 2,4 C 2,2 C 0,6 C 93 % 1018,6 hPa 0,0 l/m 0 min 0 min 0 W/m 0,0 km/h (0 Bft) 97,87 %
26.01.2021 21:46 2,4 C 2,2 C 0,6 C 93 % 1018,7 hPa 0,0 l/m 0 min 0 min 0 W/m 3,2 km/h (1 Bft) 97,87 %
26.01.2021 21:48 2,4 C 2,2 C 0,6 C 93 % 1018,6 hPa 0,0 l/m 0 min 0 min 0 W/m 0,0 km/h (0 Bft) 97,87 %
26.01.2021 21:50 2,4 C 2,2 C 0,6 C 93 % 1018,6 hPa 0,0 l/m 0 min 0 min 0 W/m 0,0 km/h (0 Bft) 95,74 %
26.01.2021 21:52 2,4 C 2,2 C 0,6 C 92 % 1018,6 hPa 0,0 l/m 0 min 0 min 0 W/m 0,0 km/h (0 Bft) 97,87 %
26.01.2021 21:54 2,4 C 2,2 C 0,6 C 92 % 1018,6 hPa 0,0 l/m 0 min 0 min 0 W/m 0,0 km/h (0 Bft) 97,83 %
26.01.2021 21:56 2,5 C 2,2 C 0,6 C 92 % 1018,5 hPa 0,0 l/m 0 min 0 min 0 W/m 3,2 km/h (1 Bft) 97,87 %
26.01.2021 21:58 2,5 C 2,2 C 0,6 C 92 % 1018,5 hPa 0,0 l/m 0 min 0 min 0 W/m 0,0 km/h (0 Bft) 97,87 %
26.01.2021 22:00 2,5 C 2,2 C 0,6 C 92 % 1018,4 hPa 0,0 l/m 0 min 0 min 0 W/m 0,0 km/h (0 Bft) 97,87 %
26.01.2021 22:02 2,5 C 2,2 C 0,6 C 92 % 1018,4 hPa 0,0 l/m 0 min 0 min 0 W/m 0,0 km/h (0 Bft) 97,87 %
26.01.2021 22:04 2,5 C 2,2 C 0,6 C 92 % 1018,4 hPa 0,0 l/m 0 min 0 min 0 W/m 0,0 km/h (0 Bft) 97,87 %
26.01.2021 22:06 2,5 C 2,2 C 0,6 C 92 % 1018,3 hPa 0,0 l/m 0 min 0 min 0 W/m 3,2 km/h (1 Bft) 97,83 %
26.01.2021 22:08 2,5 C 2,2 C 0,6 C 92 % 1018,4 hPa 0,0 l/m 0 min 0 min 0 W/m 0,0 km/h (0 Bft) 97,87 %
26.01.2021 22:10 2,5 C 2,2 C 0,6 C 91 % 1018,3 hPa 0,0 l/m 0 min 0 min 0 W/m 0,0 km/h (0 Bft) 97,87 %
26.01.2021 22:12 2,5 C 2,2 C 0,6 C 91 % 1018,4 hPa 0,0 l/m 0 min 0 min 0 W/m 0,0 km/h (0 Bft) 97,87 %
26.01.2021 22:14 2,5 C 2,2 C 0,6 C 91 % 1018,5 hPa 0,0 l/m 0 min 0 min 0 W/m 0,0 km/h (0 Bft) 96,55 %
26.01.2021 22:16 2,5 C 2,2 C 0,6 C 91 % 1018,5 hPa 0,0 l/m 0 min 0 min 0 W/m 0,0 km/h (0 Bft) 97,87 %
26.01.2021 22:18 2,5 C 2,2 C 0,6 C 91 % 1018,5 hPa 0,0 l/m 0 min 0 min 0 W/m 0,0 km/h (0 Bft) 100,00 %
26.01.2021 22:20 2,5 C 2,2 C 0,6 C 91 % 1018,5 hPa 0,0 l/m 0 min 0 min 0 W/m 0,0 km/h (0 Bft) 100,00 %
26.01.2021 22:22 2,5 C 2,2 C 0,6 C 91 % 1018,5 hPa 0,0 l/m 0 min 0 min 0 W/m 0,0 km/h (0 Bft) 100,00 %
26.01.2021 22:24 2,4 C 2,2 C 0,6 C 91 % 1018,5 hPa 0,0 l/m 0 min 0 min 0 W/m 0,0 km/h (0 Bft) 100,00 %
26.01.2021 22:26 2,4 C 2,2 C 0,6 C 90 % 1018,5 hPa 0,0 l/m 0 min 0 min 0 W/m 0,0 km/h (0 Bft) 100,00 %
26.01.2021 22:28 2,4 C 2,2 C 0,6 C 90 % 1018,5 hPa 0,0 l/m 0 min 0 min 0 W/m 0,0 km/h (0 Bft) 100,00 %
26.01.2021 22:30 2,4 C 2,2 C 0,6 C 90 % 1018,5 hPa 0,0 l/m 0 min 0 min 0 W/m 3,2 km/h (1 Bft) 100,00 %
26.01.2021 22:32 2,5 C 2,2 C 0,6 C 90 % 1018,4 hPa 0,0 l/m 0 min 0 min 0 W/m 0,0 km/h (0 Bft) 100,00 %
26.01.2021 22:34 2,4 C 2,2 C 0,6 C 90 % 1018,4 hPa 0,0 l/m 0 min 0 min 0 W/m 0,0 km/h (0 Bft) 95,74 %
26.01.2021 22:36 2,4 C 2,2 C 0,6 C 90 % 1018,5 hPa 0,0 l/m 0 min 0 min 0 W/m 0,0 km/h (0 Bft) 100,00 %
26.01.2021 22:38 2,4 C 2,2 C 0,6 C 90 % 1018,4 hPa 0,0 l/m 0 min 0 min 0 W/m 0,0 km/h (0 Bft) 95,65 %
26.01.2021 22:40 2,5 C 2,2 C 0,6 C 89 % 1018,4 hPa 0,0 l/m 0 min 0 min 0 W/m 0,0 km/h (0 Bft) 100,00 %
26.01.2021 22:42 2,4 C 2,2 C 0,6 C 89 % 1018,4 hPa 0,0 l/m 0 min 0 min 0 W/m 0,0 km/h (0 Bft) 95,74 %
26.01.2021 22:44 2,4 C 2,2 C 0,6 C 89 % 1018,4 hPa 0,0 l/m 0 min 0 min 0 W/m 12,9 km/h (3 Bft) 95,74 %
26.01.2021 22:46 2,4 C 2,2 C 0,6 C 89 % 1018,4 hPa 0,0 l/m 0 min 0 min 0 W/m 3,2 km/h (1 Bft) 95,74 %
26.01.2021 22:48 2,4 C 2,2 C 0,6 C 89 % 1018,4 hPa 0,0 l/m 0 min 0 min 0 W/m 0,0 km/h (0 Bft) 95,74 %
26.01.2021 22:50 2,4 C 2,2 C 0,6 C 89 % 1018,4 hPa 0,0 l/m 0 min 0 min 0 W/m 0,0 km/h (0 Bft) 95,65 %
26.01.2021 22:52 2,4 C 2,2 C 0,6 C 88 % 1018,4 hPa 0,0 l/m 0 min 0 min 0 W/m 0,0 km/h (0 Bft) 95,74 %
26.01.2021 22:54 2,4 C 2,2 C 0,6 C 88 % 1018,4 hPa 0,0 l/m 0 min 0 min 0 W/m 0,0 km/h (0 Bft) 93,62 %
26.01.2021 22:56 2,4 C 2,2 C 0,6 C 88 % 1018,4 hPa 0,0 l/m 0 min 0 min 0 W/m 0,0 km/h (0 Bft) 95,74 %
26.01.2021 22:58 2,4 C 2,2 C 0,6 C 88 % 1018,4 hPa 0,0 l/m 0 min 0 min 0 W/m 0,0 km/h (0 Bft) 95,74 %
26.01.2021 23:00 2,4 C 2,2 C 0,6 C 88 % 1018,5 hPa 0,0 l/m 0 min 0 min 0 W/m 0,0 km/h (0 Bft) 93,48 %
26.01.2021 23:02 2,4 C 2,2 C 0,6 C 88 % 1018,4 hPa 0,0 l/m 0 min 0 min 0 W/m 0,0 km/h (0 Bft) 97,22 %
26.01.2021 23:04 2,4 C 2,2 C 0,6 C 88 % 1018,4 hPa 0,0 l/m 0 min 0 min 0 W/m 0,0 km/h (0 Bft) 93,62 %
26.01.2021 23:06 2,4 C 2,2 C 0,6 C 88 % 1018,4 hPa 0,0 l/m 0 min 0 min 0 W/m 0,0 km/h (0 Bft) 97,83 %
26.01.2021 23:08 2,4 C 2,2 C 0,6 C 87 % 1018,3 hPa 0,0 l/m 0 min 0 min 0 W/m 0,0 km/h (0 Bft) 95,74 %
26.01.2021 23:10 2,4 C 2,2 C 0,6 C 87 % 1018,3 hPa 0,0 l/m 0 min 0 min 0 W/m 0,0 km/h (0 Bft) 95,74 %
26.01.2021 23:12 2,4 C 2,2 C 0,6 C 87 % 1018,2 hPa 0,0 l/m 0 min 0 min 0 W/m 0,0 km/h (0 Bft) 95,74 %
26.01.2021 23:14 2,4 C 2,2 C 0,6 C 87 % 1018,2 hPa 0,0 l/m 0 min 0 min 0 W/m 0,0 km/h (0 Bft) 95,74 %
26.01.2021 23:16 2,4 C 2,2 C 0,6 C 87 % 1018,1 hPa 0,0 l/m 0 min 0 min 0 W/m 0,0 km/h (0 Bft) 95,65 %
26.01.2021 23:18 2,4 C 2,2 C 0,6 C 87 % 1018,1 hPa 0,0 l/m 0 min 0 min 0 W/m 0,0 km/h (0 Bft) 97,87 %
26.01.2021 23:20 2,4 C 2,2 C 0,6 C 87 % 1018,1 hPa 0,0 l/m 0 min 0 min 0 W/m 0,0 km/h (0 Bft) 95,74 %
26.01.2021 23:22 2,4 C 2,2 C 0,6 C 87 % 1018,1 hPa 0,0 l/m 0 min 0 min 0 W/m 0,0 km/h (0 Bft) 95,74 %
26.01.2021 23:24 2,4 C 2,2 C 0,6 C 87 % 1018,1 hPa 0,0 l/m 0 min 0 min 0 W/m 0,0 km/h (0 Bft) 97,87 %
26.01.2021 23:26 2,4 C 1,7 C 0,6 C 87 % 1018,0 hPa 0,0 l/m 0 min 0 min 0 W/m 0,0 km/h (0 Bft) 97,87 %
26.01.2021 23:28 2,4 C 1,7 C 0,0 C 86 % 1018,0 hPa 0,0 l/m 0 min 0 min 0 W/m 0,0 km/h (0 Bft) 97,83 %
26.01.2021 23:30 2,4 C 1,7 C 0,0 C 86 % 1017,9 hPa 0,0 l/m 0 min 0 min 0 W/m 0,0 km/h (0 Bft) 97,87 %
26.01.2021 23:32 2,4 C 1,7 C 0,0 C 86 % 1017,9 hPa 0,0 l/m 0 min 0 min 0 W/m 0,0 km/h (0 Bft) 97,87 %
26.01.2021 23:34 2,4 C 1,7 C 0,0 C 86 % 1017,9 hPa 0,0 l/m 0 min 0 min 0 W/m 0,0 km/h (0 Bft) 97,87 %
26.01.2021 23:36 2,4 C 1,7 C 0,0 C 86 % 1017,9 hPa 0,0 l/m 0 min 0 min 0 W/m 0,0 km/h (0 Bft) 97,87 %
26.01.2021 23:38 2,4 C 1,7 C 0,0 C 86 % 1017,8 hPa 0,0 l/m 0 min 0 min 0 W/m 0,0 km/h (0 Bft) 97,87 %
26.01.2021 23:40 2,4 C 1,7 C 0,0 C 87 % 1017,8 hPa 0,0 l/m 0 min 0 min 0 W/m 0,0 km/h (0 Bft) 97,83 %
26.01.2021 23:42 2,4 C 1,7 C 0,0 C 87 % 1017,8 hPa 0,0 l/m 0 min 0 min 0 W/m 0,0 km/h (0 Bft) 97,87 %
26.01.2021 23:44 2,3 C 1,7 C 0,0 C 87 % 1017,8 hPa 0,0 l/m 0 min 0 min 0 W/m 0,0 km/h (0 Bft) 97,87 %
26.01.2021 23:46 2,3 C 1,7 C 0,0 C 87 % 1017,8 hPa 0,0 l/m 0 min 0 min 0 W/m 0,0 km/h (0 Bft) 97,87 %
26.01.2021 23:48 2,3 C 1,7 C 0,0 C 87 % 1017,7 hPa 0,0 l/m 0 min 0 min 0 W/m 0,0 km/h (0 Bft) 95,74 %
26.01.2021 23:50 2,3 C 1,7 C 0,0 C 87 % 1017,7 hPa 0,0 l/m 0 min 0 min 0 W/m 0,0 km/h (0 Bft) 97,87 %
26.01.2021 23:52 2,2 C 1,7 C 0,0 C 87 % 1017,7 hPa 0,0 l/m 0 min 0 min 0 W/m 3,2 km/h (1 Bft) 95,65 %
26.01.2021 23:54 2,2 C 1,7 C 0,0 C 87 % 1017,7 hPa 0,0 l/m 0 min 0 min 0 W/m 3,2 km/h (1 Bft) 95,74 %
26.01.2021 23:56 2,1 C 1,7 C 0,0 C 87 % 1017,6 hPa 0,0 l/m 0 min 0 min 0 W/m 3,2 km/h (1 Bft) 95,74 %
26.01.2021 23:58 2,1 C 1,7 C 0,0 C 87 % 1017,6 hPa 0,0 l/m 0 min 0 min 0 W/m 0,0 km/h (0 Bft) 97,87 %
_ Min-Zeit 23:56 01:54 01:32 23:28 00:52 - - - - 00:04 09:18
Minimum _ 2,1 C 1,1 C 0,0 C 86 % 1010,7 hPa - - - - 0,0 km/h (0 Bft) 34,38 %
_ Max-Zeit 14:40 14:20 14:20 12:08 18:02 01:28 12:10 12:08 14:20 04:20 00:40
Maximum _ 5,5 C 8,9 C 7,8 C 97 % 1019,0 hPa 0,2 l/m 2 min 4 min 336 W/m 58,0 km/h
S-SO (7 Bft)
100,00 %
Durchschnitt _ 3,2 C 2,7 C 1,5 C 93 % 1015,9 hPa #3,6 l/m #1:16 h #8:50 h 77 W/m 4,1 km/h (1 Bft) 97,15 %
© 2021 W. Hausmann